<?xml version='1.0' encoding='UTF-8'?><gpx version="1.1" creator="JPX - https://github.com/jenetics/jpx" xmlns="http://www.topografix.com/GPX/1/1"><trk><trkseg><trkpt lat="41.0023164" lon="16.8771609"><ele>156.0</ele><time>2026-04-28T13:12:11.976Z</time></trkpt><trkpt lat="41.0023192" lon="16.8770775"><ele>156.0</ele><time>2026-04-28T13:13:40.976Z</time></trkpt><trkpt lat="41.0023201" lon="16.8771621"><ele>156.0</ele><time>2026-04-28T13:18:14.975Z</time></trkpt><trkpt lat="41.002329" lon="16.8772639"><ele>156.0</ele><time>2026-04-28T13:30:14.975Z</time></trkpt><trkpt lat="41.0023129" lon="16.8773647"><ele>156.0</ele><time>2026-04-28T13:30:17.975Z</time></trkpt><trkpt lat="41.0022434" lon="16.8774343"><ele>156.0</ele><time>2026-04-28T13:30:20.974Z</time></trkpt><trkpt lat="41.0022484" lon="16.8775297"><ele>156.0</ele><time>2026-04-28T13:30:22.912Z</time></trkpt><trkpt lat="41.0022496" lon="16.8776557"><ele>155.8</ele><time>2026-04-28T13:30:23.975Z</time></trkpt><trkpt lat="41.0022394" lon="16.8777937"><ele>155.6</ele><time>2026-04-28T13:30:25.976Z</time></trkpt><trkpt lat="41.0022313" lon="16.877915"><ele>155.4</ele><time>2026-04-28T13:30:27.975Z</time></trkpt><trkpt lat="41.002224" lon="16.8780443"><ele>155.2</ele><time>2026-04-28T13:30:29.975Z</time></trkpt><trkpt lat="41.0021976" lon="16.8781699"><ele>155.0</ele><time>2026-04-28T13:30:31.974Z</time></trkpt><trkpt lat="41.0021876" lon="16.8782921"><ele>155.0</ele><time>2026-04-28T13:30:33.975Z</time></trkpt><trkpt lat="41.0021818" lon="16.8784231"><ele>155.0</ele><time>2026-04-28T13:30:35.975Z</time></trkpt><trkpt lat="41.0021647" lon="16.8785724"><ele>155.0</ele><time>2026-04-28T13:30:37.975Z</time></trkpt><trkpt lat="41.0021536" lon="16.8787256"><ele>155.0</ele><time>2026-04-28T13:30:39.975Z</time></trkpt><trkpt lat="41.0021474" lon="16.8788801"><ele>155.0</ele><time>2026-04-28T13:30:41.975Z</time></trkpt><trkpt lat="41.0021434" lon="16.8790308"><ele>155.0</ele><time>2026-04-28T13:30:43.976Z</time></trkpt><trkpt lat="41.002125" lon="16.8791751"><ele>155.0</ele><time>2026-04-28T13:30:45.976Z</time></trkpt><trkpt lat="41.0021146" lon="16.8793331"><ele>155.0</ele><time>2026-04-28T13:30:47.975Z</time></trkpt><trkpt lat="41.0021024" lon="16.879487"><ele>155.0</ele><time>2026-04-28T13:30:49.975Z</time></trkpt><trkpt lat="41.0021129" lon="16.8795984"><ele>155.0</ele><time>2026-04-28T13:30:51.975Z</time></trkpt><trkpt lat="41.0021625" lon="16.8796757"><ele>155.0</ele><time>2026-04-28T13:30:53.975Z</time></trkpt><trkpt lat="41.002232" lon="16.8796869"><ele>155.0</ele><time>2026-04-28T13:30:55.975Z</time></trkpt><trkpt lat="41.0023117" lon="16.8796779"><ele>155.0</ele><time>2026-04-28T13:30:56.976Z</time></trkpt><trkpt lat="41.0024187" lon="16.8796835"><ele>155.0</ele><time>2026-04-28T13:30:58.975Z</time></trkpt><trkpt lat="41.0024981" lon="16.8796931"><ele>155.0</ele><time>2026-04-28T13:31:00.975Z</time></trkpt><trkpt lat="41.0025615" lon="16.8797858"><ele>155.0</ele><time>2026-04-28T13:31:03.975Z</time></trkpt><trkpt lat="41.0025592" lon="16.8798726"><ele>154.8</ele><time>2026-04-28T13:31:05.975Z</time></trkpt><trkpt lat="41.0025456" lon="16.8799684"><ele>154.6</ele><time>2026-04-28T13:31:07.975Z</time></trkpt><trkpt lat="41.0025424" lon="16.8800959"><ele>154.4</ele><time>2026-04-28T13:31:09.975Z</time></trkpt><trkpt lat="41.0025226" lon="16.8802452"><ele>154.2</ele><time>2026-04-28T13:31:11.975Z</time></trkpt><trkpt lat="41.0025029" lon="16.8804049"><ele>154.0</ele><time>2026-04-28T13:31:13.975Z</time></trkpt><trkpt lat="41.0025022" lon="16.8804886"><ele>154.0</ele><time>2026-04-28T13:31:14.976Z</time></trkpt><trkpt lat="41.0024978" lon="16.8805771"><ele>154.0</ele><time>2026-04-28T13:31:15.975Z</time></trkpt><trkpt lat="41.0024925" lon="16.8806613"><ele>154.0</ele><time>2026-04-28T13:31:16.976Z</time></trkpt><trkpt lat="41.0024855" lon="16.8807455"><ele>154.0</ele><time>2026-04-28T13:31:17.975Z</time></trkpt><trkpt lat="41.0024657" lon="16.8809091"><ele>154.0</ele><time>2026-04-28T13:31:19.975Z</time></trkpt><trkpt lat="41.0024482" lon="16.8810378"><ele>154.0</ele><time>2026-04-28T13:31:21.975Z</time></trkpt><trkpt lat="41.0024541" lon="16.8811486"><ele>153.4</ele><time>2026-04-28T13:31:23.975Z</time></trkpt><trkpt lat="41.0025095" lon="16.8812258"><ele>152.8</ele><time>2026-04-28T13:31:25.975Z</time></trkpt><trkpt lat="41.0026183" lon="16.8812345"><ele>152.2</ele><time>2026-04-28T13:31:27.976Z</time></trkpt><trkpt lat="41.002728" lon="16.8812379"><ele>151.6</ele><time>2026-04-28T13:31:29.975Z</time></trkpt><trkpt lat="41.0028459" lon="16.8812437"><ele>151.0</ele><time>2026-04-28T13:31:31.976Z</time></trkpt><trkpt lat="41.0029657" lon="16.8812637"><ele>151.0</ele><time>2026-04-28T13:31:33.975Z</time></trkpt><trkpt lat="41.0030876" lon="16.8812824"><ele>151.0</ele><time>2026-04-28T13:31:35.976Z</time></trkpt><trkpt lat="41.0031509" lon="16.8812885"><ele>151.0</ele><time>2026-04-28T13:31:36.976Z</time></trkpt><trkpt lat="41.0032138" lon="16.8812933"><ele>151.0</ele><time>2026-04-28T13:31:37.975Z</time></trkpt><trkpt lat="41.0032795" lon="16.8812986"><ele>151.0</ele><time>2026-04-28T13:31:38.976Z</time></trkpt><trkpt lat="41.0034047" lon="16.8813049"><ele>151.0</ele><time>2026-04-28T13:31:40.975Z</time></trkpt><trkpt lat="41.0035264" lon="16.8813174"><ele>150.8</ele><time>2026-04-28T13:31:42.976Z</time></trkpt><trkpt lat="41.0036484" lon="16.8813278"><ele>150.6</ele><time>2026-04-28T13:31:44.975Z</time></trkpt><trkpt lat="41.003765" lon="16.8813442"><ele>150.4</ele><time>2026-04-28T13:31:46.975Z</time></trkpt><trkpt lat="41.0038445" lon="16.8814128"><ele>150.2</ele><time>2026-04-28T13:31:48.975Z</time></trkpt><trkpt lat="41.0038904" lon="16.8815493"><ele>150.0</ele><time>2026-04-28T13:31:50.975Z</time></trkpt><trkpt lat="41.0038689" lon="16.8816986"><ele>149.4</ele><time>2026-04-28T13:31:52.975Z</time></trkpt><trkpt lat="41.0038522" lon="16.8818476"><ele>148.8</ele><time>2026-04-28T13:31:54.975Z</time></trkpt><trkpt lat="41.003839" lon="16.8819851"><ele>148.2</ele><time>2026-04-28T13:31:56.975Z</time></trkpt><trkpt lat="41.0038844" lon="16.8820978"><ele>147.6</ele><time>2026-04-28T13:31:58.975Z</time></trkpt><trkpt lat="41.0039878" lon="16.8821001"><ele>147.0</ele><time>2026-04-28T13:32:00.976Z</time></trkpt><trkpt lat="41.004096" lon="16.8821084"><ele>147.0</ele><time>2026-04-28T13:32:02.976Z</time></trkpt><trkpt lat="41.0042046" lon="16.8821168"><ele>147.0</ele><time>2026-04-28T13:32:04.974Z</time></trkpt><trkpt lat="41.0043178" lon="16.8821218"><ele>147.0</ele><time>2026-04-28T13:32:06.974Z</time></trkpt><trkpt lat="41.0044294" lon="16.8821014"><ele>147.0</ele><time>2026-04-28T13:32:08.975Z</time></trkpt><trkpt lat="41.0045473" lon="16.8820695"><ele>147.0</ele><time>2026-04-28T13:32:10.975Z</time></trkpt><trkpt lat="41.004664" lon="16.8820361"><ele>147.0</ele><time>2026-04-28T13:32:12.975Z</time></trkpt><trkpt lat="41.0047812" lon="16.8820423"><ele>147.0</ele><time>2026-04-28T13:32:14.975Z</time></trkpt><trkpt lat="41.0048943" lon="16.8820663"><ele>147.0</ele><time>2026-04-28T13:32:16.976Z</time></trkpt><trkpt lat="41.0049908" lon="16.8821228"><ele>146.83333333333334</ele><time>2026-04-28T13:32:18.976Z</time></trkpt><trkpt lat="41.0050447" lon="16.8821934"><ele>146.66666666666666</ele><time>2026-04-28T13:32:20.975Z</time></trkpt><trkpt lat="41.0050998" lon="16.8822657"><ele>146.5</ele><time>2026-04-28T13:32:22.976Z</time></trkpt><trkpt lat="41.0051706" lon="16.882339"><ele>146.33333333333331</ele><time>2026-04-28T13:32:24.975Z</time></trkpt><trkpt lat="41.005248" lon="16.882414"><ele>146.16666666666666</ele><time>2026-04-28T13:32:26.974Z</time></trkpt><trkpt lat="41.0053146" lon="16.8824938"><ele>146.0</ele><time>2026-04-28T13:32:28.975Z</time></trkpt><trkpt lat="41.005377" lon="16.882589"><ele>145.5</ele><time>2026-04-28T13:32:30.976Z</time></trkpt><trkpt lat="41.0053912" lon="16.8827127"><ele>145.0</ele><time>2026-04-28T13:32:32.975Z</time></trkpt><trkpt lat="41.0054193" lon="16.8829078"><ele>144.5</ele><time>2026-04-28T13:32:35.976Z</time></trkpt><trkpt lat="41.0054369" lon="16.8830486"><ele>144.0</ele><time>2026-04-28T13:32:37.975Z</time></trkpt><trkpt lat="41.0054673" lon="16.8831974"><ele>144.0</ele><time>2026-04-28T13:32:39.975Z</time></trkpt><trkpt lat="41.0054982" lon="16.8833556"><ele>144.0</ele><time>2026-04-28T13:32:41.976Z</time></trkpt><trkpt lat="41.0055311" lon="16.8835118"><ele>144.0</ele><time>2026-04-28T13:32:43.976Z</time></trkpt><trkpt lat="41.0055991" lon="16.8836481"><ele>144.0</ele><time>2026-04-28T13:32:45.975Z</time></trkpt><trkpt lat="41.0056635" lon="16.8837814"><ele>144.2</ele><time>2026-04-28T13:32:47.975Z</time></trkpt><trkpt lat="41.0057214" lon="16.8839123"><ele>144.4</ele><time>2026-04-28T13:32:49.975Z</time></trkpt><trkpt lat="41.0057642" lon="16.8840508"><ele>144.6</ele><time>2026-04-28T13:32:51.975Z</time></trkpt><trkpt lat="41.0057913" lon="16.8841888"><ele>144.8</ele><time>2026-04-28T13:32:53.975Z</time></trkpt><trkpt lat="41.0058151" lon="16.8843171"><ele>145.0</ele><time>2026-04-28T13:32:55.975Z</time></trkpt><trkpt lat="41.005839" lon="16.8844398"><ele>145.6</ele><time>2026-04-28T13:32:57.976Z</time></trkpt><trkpt lat="41.0058849" lon="16.8845489"><ele>146.2</ele><time>2026-04-28T13:32:59.976Z</time></trkpt><trkpt lat="41.0059605" lon="16.8846213"><ele>146.8</ele><time>2026-04-28T13:33:01.975Z</time></trkpt><trkpt lat="41.0060335" lon="16.8847023"><ele>147.4</ele><time>2026-04-28T13:33:03.975Z</time></trkpt><trkpt lat="41.0060733" lon="16.8848139"><ele>148.0</ele><time>2026-04-28T13:33:05.975Z</time></trkpt><trkpt lat="41.0060804" lon="16.8849441"><ele>148.0</ele><time>2026-04-28T13:33:07.975Z</time></trkpt><trkpt lat="41.0060878" lon="16.8850692"><ele>148.0</ele><time>2026-04-28T13:33:09.975Z</time></trkpt><trkpt lat="41.006097" lon="16.8851988"><ele>148.0</ele><time>2026-04-28T13:33:11.975Z</time></trkpt><trkpt lat="41.0061056" lon="16.8853255"><ele>148.0</ele><time>2026-04-28T13:33:13.975Z</time></trkpt><trkpt lat="41.0061198" lon="16.8854517"><ele>148.0</ele><time>2026-04-28T13:33:15.975Z</time></trkpt><trkpt lat="41.0061974" lon="16.8855437"><ele>148.25</ele><time>2026-04-28T13:33:17.975Z</time></trkpt><trkpt lat="41.0062741" lon="16.8856421"><ele>148.5</ele><time>2026-04-28T13:33:19.975Z</time></trkpt><trkpt lat="41.0063118" lon="16.8857807"><ele>148.75</ele><time>2026-04-28T13:33:21.977Z</time></trkpt><trkpt lat="41.0063388" lon="16.8859308"><ele>149.0</ele><time>2026-04-28T13:33:23.975Z</time></trkpt><trkpt lat="41.0063635" lon="16.8860862"><ele>149.0</ele><time>2026-04-28T13:33:25.975Z</time></trkpt><trkpt lat="41.0063916" lon="16.8862398"><ele>149.0</ele><time>2026-04-28T13:33:27.975Z</time></trkpt><trkpt lat="41.0064219" lon="16.8863926"><ele>149.0</ele><time>2026-04-28T13:33:29.975Z</time></trkpt><trkpt lat="41.006459" lon="16.8865428"><ele>149.0</ele><time>2026-04-28T13:33:31.975Z</time></trkpt><trkpt lat="41.0064941" lon="16.8866924"><ele>148.75</ele><time>2026-04-28T13:33:33.975Z</time></trkpt><trkpt lat="41.0065292" lon="16.886845"><ele>148.5</ele><time>2026-04-28T13:33:35.975Z</time></trkpt><trkpt lat="41.0065585" lon="16.8869975"><ele>148.25</ele><time>2026-04-28T13:33:37.975Z</time></trkpt><trkpt lat="41.0065831" lon="16.8871498"><ele>148.0</ele><time>2026-04-28T13:33:39.974Z</time></trkpt><trkpt lat="41.0066096" lon="16.8873029"><ele>148.0</ele><time>2026-04-28T13:33:41.974Z</time></trkpt><trkpt lat="41.0066303" lon="16.8874555"><ele>148.0</ele><time>2026-04-28T13:33:43.974Z</time></trkpt><trkpt lat="41.0066502" lon="16.8876078"><ele>148.0</ele><time>2026-04-28T13:33:45.974Z</time></trkpt><trkpt lat="41.0066697" lon="16.8877634"><ele>148.0</ele><time>2026-04-28T13:33:47.974Z</time></trkpt><trkpt lat="41.0066895" lon="16.8879146"><ele>148.0</ele><time>2026-04-28T13:33:49.975Z</time></trkpt><trkpt lat="41.0067087" lon="16.8880661"><ele>148.0</ele><time>2026-04-28T13:33:51.974Z</time></trkpt><trkpt lat="41.0067243" lon="16.8882191"><ele>148.0</ele><time>2026-04-28T13:33:53.974Z</time></trkpt><trkpt lat="41.0067468" lon="16.8883686"><ele>148.0</ele><time>2026-04-28T13:33:55.974Z</time></trkpt><trkpt lat="41.0067705" lon="16.8885159"><ele>148.0</ele><time>2026-04-28T13:33:57.975Z</time></trkpt><trkpt lat="41.0067877" lon="16.8886606"><ele>148.0</ele><time>2026-04-28T13:33:59.975Z</time></trkpt><trkpt lat="41.0068122" lon="16.8888078"><ele>148.0</ele><time>2026-04-28T13:34:01.974Z</time></trkpt><trkpt lat="41.0068329" lon="16.8889546"><ele>148.0</ele><time>2026-04-28T13:34:03.974Z</time></trkpt><trkpt lat="41.0068562" lon="16.889096"><ele>148.0</ele><time>2026-04-28T13:34:05.975Z</time></trkpt><trkpt lat="41.0069484" lon="16.8891487"><ele>148.0</ele><time>2026-04-28T13:34:07.975Z</time></trkpt><trkpt lat="41.007052" lon="16.8891271"><ele>148.0</ele><time>2026-04-28T13:34:09.974Z</time></trkpt><trkpt lat="41.0071631" lon="16.8890994"><ele>148.0</ele><time>2026-04-28T13:34:11.974Z</time></trkpt><trkpt lat="41.007276" lon="16.8890789"><ele>148.0</ele><time>2026-04-28T13:34:13.975Z</time></trkpt><trkpt lat="41.0073883" lon="16.8890724"><ele>148.0</ele><time>2026-04-28T13:34:15.974Z</time></trkpt><trkpt lat="41.0074649" lon="16.8891764"><ele>147.8</ele><time>2026-04-28T13:34:17.974Z</time></trkpt><trkpt lat="41.007505" lon="16.8893161"><ele>147.60000000000002</ele><time>2026-04-28T13:34:19.974Z</time></trkpt><trkpt lat="41.0075331" lon="16.8894718"><ele>147.39999999999998</ele><time>2026-04-28T13:34:21.974Z</time></trkpt><trkpt lat="41.0075603" lon="16.8896341"><ele>147.2</ele><time>2026-04-28T13:34:23.975Z</time></trkpt><trkpt lat="41.0075734" lon="16.8897162"><ele>147.0</ele><time>2026-04-28T13:34:24.974Z</time></trkpt><trkpt lat="41.0075957" lon="16.8898794"><ele>147.0</ele><time>2026-04-28T13:34:26.974Z</time></trkpt><trkpt lat="41.007609" lon="16.8899623"><ele>147.0</ele><time>2026-04-28T13:34:27.975Z</time></trkpt><trkpt lat="41.0076236" lon="16.890045"><ele>147.0</ele><time>2026-04-28T13:34:28.975Z</time></trkpt><trkpt lat="41.0076353" lon="16.8901307"><ele>147.0</ele><time>2026-04-28T13:34:29.974Z</time></trkpt><trkpt lat="41.0076489" lon="16.8902161"><ele>147.0</ele><time>2026-04-28T13:34:30.975Z</time></trkpt><trkpt lat="41.0076601" lon="16.8902993"><ele>147.0</ele><time>2026-04-28T13:34:31.975Z</time></trkpt><trkpt lat="41.0076706" lon="16.8903865"><ele>147.0</ele><time>2026-04-28T13:34:32.975Z</time></trkpt><trkpt lat="41.0076811" lon="16.8904714"><ele>146.71428571428572</ele><time>2026-04-28T13:34:33.975Z</time></trkpt><trkpt lat="41.00769" lon="16.8905557"><ele>146.42857142857144</ele><time>2026-04-28T13:34:34.974Z</time></trkpt><trkpt lat="41.0076993" lon="16.8906406"><ele>146.14285714285714</ele><time>2026-04-28T13:34:35.974Z</time></trkpt><trkpt lat="41.0077086" lon="16.8907269"><ele>145.85714285714286</ele><time>2026-04-28T13:34:36.974Z</time></trkpt><trkpt lat="41.0077193" lon="16.8908131"><ele>145.57142857142858</ele><time>2026-04-28T13:34:37.974Z</time></trkpt><trkpt lat="41.0077283" lon="16.8908969"><ele>145.28571428571428</ele><time>2026-04-28T13:34:38.974Z</time></trkpt><trkpt lat="41.0077763" lon="16.8910447"><ele>145.0</ele><time>2026-04-28T13:34:40.974Z</time></trkpt><trkpt lat="41.007832" lon="16.8910836"><ele>144.57142857142858</ele><time>2026-04-28T13:34:41.974Z</time></trkpt><trkpt lat="41.0078944" lon="16.8911005"><ele>144.14285714285717</ele><time>2026-04-28T13:34:42.974Z</time></trkpt><trkpt lat="41.0079565" lon="16.8911224"><ele>143.71428571428572</ele><time>2026-04-28T13:34:43.974Z</time></trkpt><trkpt lat="41.0080118" lon="16.8911742"><ele>143.28571428571428</ele><time>2026-04-28T13:34:44.974Z</time></trkpt><trkpt lat="41.0080663" lon="16.8912225"><ele>142.85714285714283</ele><time>2026-04-28T13:34:45.974Z</time></trkpt><trkpt lat="41.0081309" lon="16.8912577"><ele>142.42857142857142</ele><time>2026-04-28T13:34:46.974Z</time></trkpt><trkpt lat="41.0081998" lon="16.8912746"><ele>142.0</ele><time>2026-04-28T13:34:47.974Z</time></trkpt><trkpt lat="41.0082728" lon="16.8912794"><ele>141.83333333333334</ele><time>2026-04-28T13:34:48.974Z</time></trkpt><trkpt lat="41.0083493" lon="16.8912807"><ele>141.66666666666669</ele><time>2026-04-28T13:34:49.974Z</time></trkpt><trkpt lat="41.0084286" lon="16.8912823"><ele>141.5</ele><time>2026-04-28T13:34:50.974Z</time></trkpt><trkpt lat="41.0085125" lon="16.8912808"><ele>141.33333333333334</ele><time>2026-04-28T13:34:51.975Z</time></trkpt><trkpt lat="41.0085979" lon="16.8912828"><ele>141.16666666666666</ele><time>2026-04-28T13:34:52.975Z</time></trkpt><trkpt lat="41.0086823" lon="16.8912846"><ele>141.0</ele><time>2026-04-28T13:34:53.974Z</time></trkpt><trkpt lat="41.0087646" lon="16.891287"><ele>141.0</ele><time>2026-04-28T13:34:54.974Z</time></trkpt><trkpt lat="41.0088452" lon="16.8912916"><ele>141.0</ele><time>2026-04-28T13:34:55.974Z</time></trkpt><trkpt lat="41.0089213" lon="16.8912999"><ele>141.0</ele><time>2026-04-28T13:34:56.975Z</time></trkpt><trkpt lat="41.0089936" lon="16.8913068"><ele>141.0</ele><time>2026-04-28T13:34:57.975Z</time></trkpt><trkpt lat="41.0090612" lon="16.8913139"><ele>141.0</ele><time>2026-04-28T13:34:58.974Z</time></trkpt><trkpt lat="41.0091812" lon="16.891335"><ele>141.0</ele><time>2026-04-28T13:35:00.974Z</time></trkpt><trkpt lat="41.0092803" lon="16.8913873"><ele>141.0</ele><time>2026-04-28T13:35:02.975Z</time></trkpt><trkpt lat="41.0092882" lon="16.8915041"><ele>141.0</ele><time>2026-04-28T13:35:04.976Z</time></trkpt><trkpt lat="41.0092418" lon="16.8916032"><ele>141.0</ele><time>2026-04-28T13:35:06.974Z</time></trkpt><trkpt lat="41.0091763" lon="16.8916866"><ele>141.0</ele><time>2026-04-28T13:35:08.975Z</time></trkpt><trkpt lat="41.0091017" lon="16.8917713"><ele>141.0</ele><time>2026-04-28T13:35:10.974Z</time></trkpt><trkpt lat="41.0090395" lon="16.8918683"><ele>141.0</ele><time>2026-04-28T13:35:12.974Z</time></trkpt><trkpt lat="41.0089821" lon="16.8919748"><ele>141.0</ele><time>2026-04-28T13:35:14.975Z</time></trkpt><trkpt lat="41.0089314" lon="16.8920904"><ele>141.0</ele><time>2026-04-28T13:35:16.975Z</time></trkpt><trkpt lat="41.0088754" lon="16.8922006"><ele>141.0</ele><time>2026-04-28T13:35:18.974Z</time></trkpt><trkpt lat="41.0088151" lon="16.892312"><ele>141.0</ele><time>2026-04-28T13:35:20.974Z</time></trkpt><trkpt lat="41.0087599" lon="16.8924241"><ele>141.0</ele><time>2026-04-28T13:35:22.974Z</time></trkpt><trkpt lat="41.0087103" lon="16.8925379"><ele>141.0</ele><time>2026-04-28T13:35:24.975Z</time></trkpt><trkpt lat="41.008663" lon="16.8926587"><ele>141.0</ele><time>2026-04-28T13:35:26.974Z</time></trkpt><trkpt lat="41.0086053" lon="16.8927711"><ele>141.0</ele><time>2026-04-28T13:35:28.974Z</time></trkpt><trkpt lat="41.0085392" lon="16.8928733"><ele>141.0</ele><time>2026-04-28T13:35:30.974Z</time></trkpt><trkpt lat="41.0084715" lon="16.8929824"><ele>141.2</ele><time>2026-04-28T13:35:32.974Z</time></trkpt><trkpt lat="41.0084008" lon="16.8930846"><ele>141.39999999999998</ele><time>2026-04-28T13:35:34.974Z</time></trkpt><trkpt lat="41.0083321" lon="16.8931866"><ele>141.6</ele><time>2026-04-28T13:35:36.975Z</time></trkpt><trkpt lat="41.0082912" lon="16.8933181"><ele>141.79999999999998</ele><time>2026-04-28T13:35:38.974Z</time></trkpt><trkpt lat="41.008264" lon="16.8934554"><ele>142.0</ele><time>2026-04-28T13:35:40.974Z</time></trkpt><trkpt lat="41.0082156" lon="16.8935719"><ele>142.0</ele><time>2026-04-28T13:35:42.974Z</time></trkpt><trkpt lat="41.008164" lon="16.8936896"><ele>142.0</ele><time>2026-04-28T13:35:44.975Z</time></trkpt><trkpt lat="41.0081156" lon="16.893809"><ele>142.0</ele><time>2026-04-28T13:35:46.974Z</time></trkpt><trkpt lat="41.0080795" lon="16.8939361"><ele>142.0</ele><time>2026-04-28T13:35:48.974Z</time></trkpt><trkpt lat="41.0080497" lon="16.8940735"><ele>142.0</ele><time>2026-04-28T13:35:50.975Z</time></trkpt><trkpt lat="41.0080281" lon="16.8942059"><ele>142.2</ele><time>2026-04-28T13:35:52.974Z</time></trkpt><trkpt lat="41.0080006" lon="16.8943391"><ele>142.39999999999998</ele><time>2026-04-28T13:35:54.974Z</time></trkpt><trkpt lat="41.0079764" lon="16.8944748"><ele>142.60000000000002</ele><time>2026-04-28T13:35:56.975Z</time></trkpt><trkpt lat="41.0079473" lon="16.8946091"><ele>142.8</ele><time>2026-04-28T13:35:58.974Z</time></trkpt><trkpt lat="41.0079256" lon="16.8947457"><ele>143.0</ele><time>2026-04-28T13:36:00.974Z</time></trkpt><trkpt lat="41.0079007" lon="16.8948851"><ele>143.0</ele><time>2026-04-28T13:36:02.975Z</time></trkpt><trkpt lat="41.0078799" lon="16.8950279"><ele>143.0</ele><time>2026-04-28T13:36:04.974Z</time></trkpt><trkpt lat="41.0078622" lon="16.8951792"><ele>143.0</ele><time>2026-04-28T13:36:06.974Z</time></trkpt><trkpt lat="41.0078448" lon="16.8953333"><ele>143.0</ele><time>2026-04-28T13:36:08.974Z</time></trkpt><trkpt lat="41.0078186" lon="16.8954816"><ele>143.8</ele><time>2026-04-28T13:36:10.974Z</time></trkpt><trkpt lat="41.0077934" lon="16.8956245"><ele>144.60000000000002</ele><time>2026-04-28T13:36:12.974Z</time></trkpt><trkpt lat="41.007767" lon="16.895759"><ele>145.39999999999998</ele><time>2026-04-28T13:36:14.974Z</time></trkpt><trkpt lat="41.0077519" lon="16.8958911"><ele>146.2</ele><time>2026-04-28T13:36:16.975Z</time></trkpt><trkpt lat="41.0077373" lon="16.8960251"><ele>147.0</ele><time>2026-04-28T13:36:18.974Z</time></trkpt><trkpt lat="41.0077267" lon="16.8961596"><ele>147.2</ele><time>2026-04-28T13:36:20.975Z</time></trkpt><trkpt lat="41.0077197" lon="16.8962959"><ele>147.39999999999998</ele><time>2026-04-28T13:36:22.974Z</time></trkpt><trkpt lat="41.0077127" lon="16.8964328"><ele>147.60000000000002</ele><time>2026-04-28T13:36:24.974Z</time></trkpt><trkpt lat="41.0076985" lon="16.8965744"><ele>147.8</ele><time>2026-04-28T13:36:26.975Z</time></trkpt><trkpt lat="41.0076828" lon="16.8967103"><ele>148.0</ele><time>2026-04-28T13:36:28.974Z</time></trkpt><trkpt lat="41.0076704" lon="16.8968482"><ele>148.0</ele><time>2026-04-28T13:36:30.974Z</time></trkpt><trkpt lat="41.0076508" lon="16.8969851"><ele>148.0</ele><time>2026-04-28T13:36:32.974Z</time></trkpt><trkpt lat="41.0076499" lon="16.8971241"><ele>148.0</ele><time>2026-04-28T13:36:34.975Z</time></trkpt><trkpt lat="41.0076693" lon="16.8972663"><ele>148.0</ele><time>2026-04-28T13:36:36.974Z</time></trkpt><trkpt lat="41.0076871" lon="16.8974047"><ele>148.0</ele><time>2026-04-28T13:36:38.975Z</time></trkpt><trkpt lat="41.0076808" lon="16.8975499"><ele>148.0</ele><time>2026-04-28T13:36:40.975Z</time></trkpt><trkpt lat="41.0076613" lon="16.8976928"><ele>148.0</ele><time>2026-04-28T13:36:42.974Z</time></trkpt><trkpt lat="41.0076439" lon="16.8978361"><ele>148.0</ele><time>2026-04-28T13:36:44.974Z</time></trkpt><trkpt lat="41.0076307" lon="16.8979822"><ele>148.0</ele><time>2026-04-28T13:36:46.974Z</time></trkpt><trkpt lat="41.0076172" lon="16.8981257"><ele>148.0</ele><time>2026-04-28T13:36:48.974Z</time></trkpt><trkpt lat="41.0076034" lon="16.8982656"><ele>148.0</ele><time>2026-04-28T13:36:50.974Z</time></trkpt><trkpt lat="41.0075919" lon="16.8984073"><ele>148.0</ele><time>2026-04-28T13:36:52.974Z</time></trkpt><trkpt lat="41.0075753" lon="16.8985477"><ele>148.0</ele><time>2026-04-28T13:36:54.974Z</time></trkpt><trkpt lat="41.0075573" lon="16.8986842"><ele>148.0</ele><time>2026-04-28T13:36:56.974Z</time></trkpt><trkpt lat="41.0075412" lon="16.8988238"><ele>148.0</ele><time>2026-04-28T13:36:58.974Z</time></trkpt><trkpt lat="41.0075317" lon="16.8989625"><ele>148.0</ele><time>2026-04-28T13:37:00.975Z</time></trkpt><trkpt lat="41.0075183" lon="16.8991034"><ele>148.0</ele><time>2026-04-28T13:37:02.974Z</time></trkpt><trkpt lat="41.007502" lon="16.8992453"><ele>148.0</ele><time>2026-04-28T13:37:04.975Z</time></trkpt><trkpt lat="41.0074863" lon="16.8993839"><ele>148.0</ele><time>2026-04-28T13:37:06.974Z</time></trkpt><trkpt lat="41.007475" lon="16.8995286"><ele>148.0</ele><time>2026-04-28T13:37:08.975Z</time></trkpt><trkpt lat="41.007461" lon="16.8996753"><ele>147.8</ele><time>2026-04-28T13:37:10.974Z</time></trkpt><trkpt lat="41.0074481" lon="16.8998213"><ele>147.60000000000002</ele><time>2026-04-28T13:37:12.974Z</time></trkpt><trkpt lat="41.007432" lon="16.899964"><ele>147.39999999999998</ele><time>2026-04-28T13:37:14.974Z</time></trkpt><trkpt lat="41.007415" lon="16.900107"><ele>147.2</ele><time>2026-04-28T13:37:16.974Z</time></trkpt><trkpt lat="41.0074008" lon="16.9002576"><ele>147.0</ele><time>2026-04-28T13:37:18.974Z</time></trkpt><trkpt lat="41.0073894" lon="16.900401"><ele>147.0</ele><time>2026-04-28T13:37:20.974Z</time></trkpt><trkpt lat="41.0073787" lon="16.9005428"><ele>147.0</ele><time>2026-04-28T13:37:22.975Z</time></trkpt><trkpt lat="41.0073624" lon="16.9006845"><ele>147.0</ele><time>2026-04-28T13:37:24.974Z</time></trkpt><trkpt lat="41.0073456" lon="16.9008282"><ele>147.0</ele><time>2026-04-28T13:37:26.974Z</time></trkpt><trkpt lat="41.0073298" lon="16.9009653"><ele>147.0</ele><time>2026-04-28T13:37:28.974Z</time></trkpt><trkpt lat="41.007309" lon="16.9011004"><ele>147.2</ele><time>2026-04-28T13:37:30.974Z</time></trkpt><trkpt lat="41.0072901" lon="16.9012348"><ele>147.39999999999998</ele><time>2026-04-28T13:37:32.974Z</time></trkpt><trkpt lat="41.0072679" lon="16.9013644"><ele>147.60000000000002</ele><time>2026-04-28T13:37:34.974Z</time></trkpt><trkpt lat="41.0072401" lon="16.9014955"><ele>147.8</ele><time>2026-04-28T13:37:36.974Z</time></trkpt><trkpt lat="41.0072041" lon="16.9016224"><ele>148.0</ele><time>2026-04-28T13:37:38.974Z</time></trkpt><trkpt lat="41.0071611" lon="16.9017476"><ele>148.20000000000002</ele><time>2026-04-28T13:37:40.975Z</time></trkpt><trkpt lat="41.0071211" lon="16.9018716"><ele>148.4</ele><time>2026-04-28T13:37:42.975Z</time></trkpt><trkpt lat="41.0070913" lon="16.9019937"><ele>148.60000000000002</ele><time>2026-04-28T13:37:44.975Z</time></trkpt><trkpt lat="41.007061" lon="16.9021191"><ele>148.8</ele><time>2026-04-28T13:37:46.974Z</time></trkpt><trkpt lat="41.0070264" lon="16.9022488"><ele>149.0</ele><time>2026-04-28T13:37:48.975Z</time></trkpt><trkpt lat="41.0069986" lon="16.9023706"><ele>149.0</ele><time>2026-04-28T13:37:50.974Z</time></trkpt><trkpt lat="41.0069727" lon="16.9024815"><ele>149.0</ele><time>2026-04-28T13:37:52.974Z</time></trkpt><trkpt lat="41.0069449" lon="16.9025928"><ele>149.0</ele><time>2026-04-28T13:37:54.974Z</time></trkpt><trkpt lat="41.0069161" lon="16.9026944"><ele>149.0</ele><time>2026-04-28T13:37:56.975Z</time></trkpt><trkpt lat="41.0068894" lon="16.902801"><ele>149.0</ele><time>2026-04-28T13:37:58.975Z</time></trkpt><trkpt lat="41.0068613" lon="16.9029216"><ele>149.0</ele><time>2026-04-28T13:38:00.974Z</time></trkpt><trkpt lat="41.0068276" lon="16.9030516"><ele>149.2</ele><time>2026-04-28T13:38:02.974Z</time></trkpt><trkpt lat="41.0067943" lon="16.9031846"><ele>149.4</ele><time>2026-04-28T13:38:04.975Z</time></trkpt><trkpt lat="41.0067477" lon="16.903308"><ele>149.6</ele><time>2026-04-28T13:38:06.974Z</time></trkpt><trkpt lat="41.006695" lon="16.9034277"><ele>149.8</ele><time>2026-04-28T13:38:08.975Z</time></trkpt><trkpt lat="41.0066502" lon="16.9035527"><ele>150.0</ele><time>2026-04-28T13:38:10.974Z</time></trkpt><trkpt lat="41.0066965" lon="16.9036587"><ele>150.0</ele><time>2026-04-28T13:38:12.975Z</time></trkpt><trkpt lat="41.0067941" lon="16.9036873"><ele>150.0</ele><time>2026-04-28T13:38:14.974Z</time></trkpt><trkpt lat="41.0068969" lon="16.9037095"><ele>150.0</ele><time>2026-04-28T13:38:16.974Z</time></trkpt><trkpt lat="41.0070017" lon="16.9037181"><ele>150.0</ele><time>2026-04-28T13:38:18.974Z</time></trkpt><trkpt lat="41.0071093" lon="16.9037148"><ele>150.0</ele><time>2026-04-28T13:38:20.975Z</time></trkpt><trkpt lat="41.0072135" lon="16.9037117"><ele>150.0</ele><time>2026-04-28T13:38:22.974Z</time></trkpt><trkpt lat="41.0073185" lon="16.9037157"><ele>150.0</ele><time>2026-04-28T13:38:24.974Z</time></trkpt><trkpt lat="41.0074213" lon="16.9037458"><ele>150.0</ele><time>2026-04-28T13:38:26.974Z</time></trkpt><trkpt lat="41.007468" lon="16.9038651"><ele>150.0</ele><time>2026-04-28T13:38:28.975Z</time></trkpt><trkpt lat="41.0074578" lon="16.9040006"><ele>150.0</ele><time>2026-04-28T13:38:30.974Z</time></trkpt><trkpt lat="41.0074405" lon="16.9041392"><ele>150.2</ele><time>2026-04-28T13:38:32.974Z</time></trkpt><trkpt lat="41.0074277" lon="16.9042803"><ele>150.4</ele><time>2026-04-28T13:38:34.975Z</time></trkpt><trkpt lat="41.0074096" lon="16.9044219"><ele>150.6</ele><time>2026-04-28T13:38:36.975Z</time></trkpt><trkpt lat="41.0073902" lon="16.9045662"><ele>150.8</ele><time>2026-04-28T13:38:38.974Z</time></trkpt><trkpt lat="41.0073755" lon="16.9047043"><ele>151.0</ele><time>2026-04-28T13:38:40.975Z</time></trkpt><trkpt lat="41.0073551" lon="16.9048509"><ele>151.0</ele><time>2026-04-28T13:38:42.975Z</time></trkpt><trkpt lat="41.0073318" lon="16.9049977"><ele>151.0</ele><time>2026-04-28T13:38:44.974Z</time></trkpt><trkpt lat="41.0073114" lon="16.9051472"><ele>151.0</ele><time>2026-04-28T13:38:46.974Z</time></trkpt><trkpt lat="41.0072929" lon="16.9052982"><ele>151.0</ele><time>2026-04-28T13:38:48.974Z</time></trkpt><trkpt lat="41.0072717" lon="16.9054455"><ele>151.0</ele><time>2026-04-28T13:38:50.975Z</time></trkpt><trkpt lat="41.0072571" lon="16.9055958"><ele>151.0</ele><time>2026-04-28T13:38:52.974Z</time></trkpt><trkpt lat="41.0072407" lon="16.9057462"><ele>151.0</ele><time>2026-04-28T13:38:54.974Z</time></trkpt><trkpt lat="41.0072077" lon="16.9058911"><ele>151.0</ele><time>2026-04-28T13:38:56.974Z</time></trkpt><trkpt lat="41.0071692" lon="16.906028"><ele>150.5</ele><time>2026-04-28T13:38:58.975Z</time></trkpt><trkpt lat="41.007128" lon="16.9061662"><ele>150.0</ele><time>2026-04-28T13:39:00.974Z</time></trkpt><trkpt lat="41.0070752" lon="16.9062998"><ele>149.5</ele><time>2026-04-28T13:39:02.974Z</time></trkpt><trkpt lat="41.0070283" lon="16.9064349"><ele>149.0</ele><time>2026-04-28T13:39:04.974Z</time></trkpt><trkpt lat="41.0069979" lon="16.9065774"><ele>149.0</ele><time>2026-04-28T13:39:06.974Z</time></trkpt><trkpt lat="41.0070068" lon="16.9067216"><ele>149.0</ele><time>2026-04-28T13:39:08.974Z</time></trkpt><trkpt lat="41.0070461" lon="16.9068593"><ele>149.0</ele><time>2026-04-28T13:39:10.974Z</time></trkpt><trkpt lat="41.0070877" lon="16.9069921"><ele>149.0</ele><time>2026-04-28T13:39:12.974Z</time></trkpt><trkpt lat="41.0071287" lon="16.9071248"><ele>149.0</ele><time>2026-04-28T13:39:14.974Z</time></trkpt><trkpt lat="41.0071641" lon="16.9072555"><ele>149.0</ele><time>2026-04-28T13:39:16.975Z</time></trkpt><trkpt lat="41.0072007" lon="16.9073896"><ele>149.0</ele><time>2026-04-28T13:39:18.974Z</time></trkpt><trkpt lat="41.007237" lon="16.9075224"><ele>149.0</ele><time>2026-04-28T13:39:20.974Z</time></trkpt><trkpt lat="41.0072709" lon="16.9076572"><ele>149.0</ele><time>2026-04-28T13:39:22.975Z</time></trkpt><trkpt lat="41.0073265" lon="16.9077739"><ele>149.0</ele><time>2026-04-28T13:39:24.974Z</time></trkpt><trkpt lat="41.0074126" lon="16.9078742"><ele>149.5</ele><time>2026-04-28T13:39:26.974Z</time></trkpt><trkpt lat="41.007503" lon="16.9079658"><ele>150.0</ele><time>2026-04-28T13:39:28.974Z</time></trkpt><trkpt lat="41.0075846" lon="16.9080653"><ele>150.5</ele><time>2026-04-28T13:39:30.974Z</time></trkpt><trkpt lat="41.0076623" lon="16.9081702"><ele>151.0</ele><time>2026-04-28T13:39:32.974Z</time></trkpt><trkpt lat="41.0077413" lon="16.90828"><ele>151.0</ele><time>2026-04-28T13:39:34.974Z</time></trkpt><trkpt lat="41.0078199" lon="16.9083966"><ele>151.0</ele><time>2026-04-28T13:39:36.974Z</time></trkpt><trkpt lat="41.0079062" lon="16.9085094"><ele>151.0</ele><time>2026-04-28T13:39:38.974Z</time></trkpt><trkpt lat="41.0079898" lon="16.9086252"><ele>151.0</ele><time>2026-04-28T13:39:40.974Z</time></trkpt><trkpt lat="41.0080734" lon="16.9087397"><ele>151.4</ele><time>2026-04-28T13:39:42.974Z</time></trkpt><trkpt lat="41.0081582" lon="16.9088545"><ele>151.8</ele><time>2026-04-28T13:39:44.974Z</time></trkpt><trkpt lat="41.0082394" lon="16.9089691"><ele>152.20000000000002</ele><time>2026-04-28T13:39:46.974Z</time></trkpt><trkpt lat="41.0083065" lon="16.9090624"><ele>152.6</ele><time>2026-04-28T13:39:48.974Z</time></trkpt><trkpt lat="41.008281" lon="16.909159"><ele>153.0</ele><time>2026-04-28T13:39:51.975Z</time></trkpt><trkpt lat="41.0082164" lon="16.9092082"><ele>153.20000000000002</ele><time>2026-04-28T13:39:53.975Z</time></trkpt><trkpt lat="41.0081446" lon="16.9092672"><ele>153.4</ele><time>2026-04-28T13:39:55.974Z</time></trkpt><trkpt lat="41.0080638" lon="16.9093214"><ele>153.60000000000002</ele><time>2026-04-28T13:39:57.975Z</time></trkpt><trkpt lat="41.0079758" lon="16.9093643"><ele>153.8</ele><time>2026-04-28T13:39:59.975Z</time></trkpt><trkpt lat="41.0078941" lon="16.9094187"><ele>154.0</ele><time>2026-04-28T13:40:01.974Z</time></trkpt><trkpt lat="41.007813" lon="16.9094772"><ele>154.0</ele><time>2026-04-28T13:40:03.975Z</time></trkpt><trkpt lat="41.0077299" lon="16.9095341"><ele>154.0</ele><time>2026-04-28T13:40:05.974Z</time></trkpt><trkpt lat="41.0076491" lon="16.9095936"><ele>154.0</ele><time>2026-04-28T13:40:07.974Z</time></trkpt><trkpt lat="41.0075668" lon="16.9096546"><ele>154.0</ele><time>2026-04-28T13:40:09.974Z</time></trkpt><trkpt lat="41.007485" lon="16.909713"><ele>154.0</ele><time>2026-04-28T13:40:11.975Z</time></trkpt><trkpt lat="41.0074038" lon="16.9097697"><ele>154.0</ele><time>2026-04-28T13:40:13.974Z</time></trkpt><trkpt lat="41.0073224" lon="16.9098273"><ele>154.0</ele><time>2026-04-28T13:40:15.974Z</time></trkpt><trkpt lat="41.0072386" lon="16.9098846"><ele>154.0</ele><time>2026-04-28T13:40:17.974Z</time></trkpt><trkpt lat="41.0071552" lon="16.9099442"><ele>154.0</ele><time>2026-04-28T13:40:19.974Z</time></trkpt><trkpt lat="41.0070702" lon="16.910007"><ele>154.0</ele><time>2026-04-28T13:40:21.975Z</time></trkpt><trkpt lat="41.0069797" lon="16.9100681"><ele>154.0</ele><time>2026-04-28T13:40:23.974Z</time></trkpt><trkpt lat="41.0068872" lon="16.9101356"><ele>154.0</ele><time>2026-04-28T13:40:25.974Z</time></trkpt><trkpt lat="41.006796" lon="16.9102065"><ele>154.0</ele><time>2026-04-28T13:40:27.974Z</time></trkpt><trkpt lat="41.0067044" lon="16.9102717"><ele>154.0</ele><time>2026-04-28T13:40:29.974Z</time></trkpt><trkpt lat="41.0066141" lon="16.9103312"><ele>154.0</ele><time>2026-04-28T13:40:31.974Z</time></trkpt><trkpt lat="41.0065226" lon="16.9103954"><ele>154.0</ele><time>2026-04-28T13:40:33.975Z</time></trkpt><trkpt lat="41.0064326" lon="16.9104568"><ele>154.0</ele><time>2026-04-28T13:40:35.975Z</time></trkpt><trkpt lat="41.0063447" lon="16.9105239"><ele>154.0</ele><time>2026-04-28T13:40:37.974Z</time></trkpt><trkpt lat="41.0062525" lon="16.9105854"><ele>154.0</ele><time>2026-04-28T13:40:39.975Z</time></trkpt><trkpt lat="41.0061584" lon="16.9106536"><ele>154.0</ele><time>2026-04-28T13:40:41.974Z</time></trkpt><trkpt lat="41.0060615" lon="16.9107166"><ele>154.0</ele><time>2026-04-28T13:40:43.974Z</time></trkpt><trkpt lat="41.0059638" lon="16.9107803"><ele>154.0</ele><time>2026-04-28T13:40:45.975Z</time></trkpt><trkpt lat="41.0058622" lon="16.9108395"><ele>154.0</ele><time>2026-04-28T13:40:47.974Z</time></trkpt><trkpt lat="41.005759" lon="16.9108958"><ele>154.0</ele><time>2026-04-28T13:40:49.974Z</time></trkpt><trkpt lat="41.0056554" lon="16.9109447"><ele>154.0</ele><time>2026-04-28T13:40:51.974Z</time></trkpt><trkpt lat="41.005551" lon="16.9109944"><ele>153.6</ele><time>2026-04-28T13:40:53.974Z</time></trkpt><trkpt lat="41.0054455" lon="16.9110354"><ele>153.2</ele><time>2026-04-28T13:40:55.974Z</time></trkpt><trkpt lat="41.005343" lon="16.911074"><ele>152.79999999999998</ele><time>2026-04-28T13:40:57.974Z</time></trkpt><trkpt lat="41.0052379" lon="16.9111053"><ele>152.4</ele><time>2026-04-28T13:40:59.975Z</time></trkpt><trkpt lat="41.0051312" lon="16.9111342"><ele>152.0</ele><time>2026-04-28T13:41:01.974Z</time></trkpt><trkpt lat="41.0050228" lon="16.9111593"><ele>152.2</ele><time>2026-04-28T13:41:03.975Z</time></trkpt><trkpt lat="41.0049167" lon="16.9111852"><ele>152.39999999999998</ele><time>2026-04-28T13:41:05.975Z</time></trkpt><trkpt lat="41.0048122" lon="16.9112056"><ele>152.60000000000002</ele><time>2026-04-28T13:41:07.974Z</time></trkpt><trkpt lat="41.0047058" lon="16.9112259"><ele>152.8</ele><time>2026-04-28T13:41:09.974Z</time></trkpt><trkpt lat="41.0046001" lon="16.9112495"><ele>153.0</ele><time>2026-04-28T13:41:11.974Z</time></trkpt><trkpt lat="41.0044938" lon="16.9112749"><ele>153.0</ele><time>2026-04-28T13:41:13.975Z</time></trkpt><trkpt lat="41.0043887" lon="16.9112987"><ele>153.0</ele><time>2026-04-28T13:41:15.975Z</time></trkpt><trkpt lat="41.004279" lon="16.9113188"><ele>153.0</ele><time>2026-04-28T13:41:17.975Z</time></trkpt><trkpt lat="41.0041681" lon="16.9113434"><ele>153.0</ele><time>2026-04-28T13:41:19.974Z</time></trkpt><trkpt lat="41.0040601" lon="16.9113714"><ele>153.0</ele><time>2026-04-28T13:41:21.974Z</time></trkpt><trkpt lat="41.0039515" lon="16.9113918"><ele>153.4</ele><time>2026-04-28T13:41:23.974Z</time></trkpt><trkpt lat="41.003846" lon="16.9114139"><ele>153.8</ele><time>2026-04-28T13:41:25.974Z</time></trkpt><trkpt lat="41.0037383" lon="16.9114369"><ele>154.2</ele><time>2026-04-28T13:41:27.974Z</time></trkpt><trkpt lat="41.0036374" lon="16.9114567"><ele>154.6</ele><time>2026-04-28T13:41:29.975Z</time></trkpt><trkpt lat="41.0035312" lon="16.9114817"><ele>155.0</ele><time>2026-04-28T13:41:31.974Z</time></trkpt><trkpt lat="41.0034255" lon="16.911508"><ele>155.2</ele><time>2026-04-28T13:41:33.974Z</time></trkpt><trkpt lat="41.0033215" lon="16.9115282"><ele>155.4</ele><time>2026-04-28T13:41:35.974Z</time></trkpt><trkpt lat="41.0032179" lon="16.9115485"><ele>155.6</ele><time>2026-04-28T13:41:37.974Z</time></trkpt><trkpt lat="41.0031108" lon="16.9115519"><ele>155.8</ele><time>2026-04-28T13:41:39.974Z</time></trkpt><trkpt lat="41.0030054" lon="16.9115313"><ele>156.0</ele><time>2026-04-28T13:41:41.975Z</time></trkpt><trkpt lat="41.0029036" lon="16.9114925"><ele>156.0</ele><time>2026-04-28T13:41:43.974Z</time></trkpt><trkpt lat="41.0028037" lon="16.9114364"><ele>156.0</ele><time>2026-04-28T13:41:45.974Z</time></trkpt><trkpt lat="41.0026968" lon="16.9113841"><ele>156.0</ele><time>2026-04-28T13:41:47.974Z</time></trkpt><trkpt lat="41.0025797" lon="16.911371"><ele>156.0</ele><time>2026-04-28T13:41:49.974Z</time></trkpt><trkpt lat="41.0024688" lon="16.9114321"><ele>155.8</ele><time>2026-04-28T13:41:51.975Z</time></trkpt><trkpt lat="41.0023911" lon="16.9115474"><ele>155.6</ele><time>2026-04-28T13:41:53.974Z</time></trkpt><trkpt lat="41.0023458" lon="16.911688"><ele>155.4</ele><time>2026-04-28T13:41:55.974Z</time></trkpt><trkpt lat="41.0023554" lon="16.9118287"><ele>155.2</ele><time>2026-04-28T13:41:57.974Z</time></trkpt><trkpt lat="41.0023931" lon="16.9119499"><ele>155.0</ele><time>2026-04-28T13:41:59.974Z</time></trkpt><trkpt lat="41.0024327" lon="16.9120785"><ele>155.0</ele><time>2026-04-28T13:42:01.974Z</time></trkpt><trkpt lat="41.0024925" lon="16.9121941"><ele>155.0</ele><time>2026-04-28T13:42:03.974Z</time></trkpt><trkpt lat="41.0025313" lon="16.9123204"><ele>155.0</ele><time>2026-04-28T13:42:05.974Z</time></trkpt><trkpt lat="41.0025494" lon="16.9124564"><ele>155.0</ele><time>2026-04-28T13:42:07.974Z</time></trkpt><trkpt lat="41.0025472" lon="16.9125949"><ele>155.0</ele><time>2026-04-28T13:42:09.975Z</time></trkpt><trkpt lat="41.002539" lon="16.9127363"><ele>155.2</ele><time>2026-04-28T13:42:11.974Z</time></trkpt><trkpt lat="41.00253" lon="16.9128773"><ele>155.4</ele><time>2026-04-28T13:42:13.974Z</time></trkpt><trkpt lat="41.0025216" lon="16.913014"><ele>155.6</ele><time>2026-04-28T13:42:15.975Z</time></trkpt><trkpt lat="41.0025169" lon="16.9131518"><ele>155.8</ele><time>2026-04-28T13:42:17.974Z</time></trkpt><trkpt lat="41.0025137" lon="16.9132895"><ele>156.0</ele><time>2026-04-28T13:42:19.975Z</time></trkpt><trkpt lat="41.0025079" lon="16.9134285"><ele>156.0</ele><time>2026-04-28T13:42:21.975Z</time></trkpt><trkpt lat="41.0024975" lon="16.9135695"><ele>156.0</ele><time>2026-04-28T13:42:23.974Z</time></trkpt><trkpt lat="41.0024932" lon="16.9137137"><ele>156.0</ele><time>2026-04-28T13:42:25.974Z</time></trkpt><trkpt lat="41.0024841" lon="16.9138606"><ele>156.0</ele><time>2026-04-28T13:42:27.974Z</time></trkpt><trkpt lat="41.0024594" lon="16.914002"><ele>156.0</ele><time>2026-04-28T13:42:29.975Z</time></trkpt><trkpt lat="41.0024108" lon="16.9141377"><ele>155.8</ele><time>2026-04-28T13:42:31.974Z</time></trkpt><trkpt lat="41.0023371" lon="16.9142537"><ele>155.6</ele><time>2026-04-28T13:42:33.975Z</time></trkpt><trkpt lat="41.0022309" lon="16.9143306"><ele>155.4</ele><time>2026-04-28T13:42:35.975Z</time></trkpt><trkpt lat="41.002111" lon="16.9143724"><ele>155.2</ele><time>2026-04-28T13:42:37.974Z</time></trkpt><trkpt lat="41.0020462" lon="16.9143787"><ele>155.0</ele><time>2026-04-28T13:42:38.974Z</time></trkpt><trkpt lat="41.00198" lon="16.9143807"><ele>155.0</ele><time>2026-04-28T13:42:39.974Z</time></trkpt><trkpt lat="41.0019157" lon="16.9143813"><ele>155.0</ele><time>2026-04-28T13:42:40.974Z</time></trkpt><trkpt lat="41.0018503" lon="16.9143854"><ele>155.0</ele><time>2026-04-28T13:42:41.974Z</time></trkpt><trkpt lat="41.0017811" lon="16.9143914"><ele>155.0</ele><time>2026-04-28T13:42:42.974Z</time></trkpt><trkpt lat="41.0017117" lon="16.91439"><ele>155.0</ele><time>2026-04-28T13:42:43.975Z</time></trkpt><trkpt lat="41.0016413" lon="16.9143927"><ele>155.0</ele><time>2026-04-28T13:42:44.975Z</time></trkpt><trkpt lat="41.0015701" lon="16.9143886"><ele>155.0</ele><time>2026-04-28T13:42:45.975Z</time></trkpt><trkpt lat="41.0014978" lon="16.9143836"><ele>155.0</ele><time>2026-04-28T13:42:46.974Z</time></trkpt><trkpt lat="41.0014272" lon="16.9143727"><ele>155.0</ele><time>2026-04-28T13:42:47.974Z</time></trkpt><trkpt lat="41.0013606" lon="16.9143557"><ele>155.0</ele><time>2026-04-28T13:42:48.975Z</time></trkpt><trkpt lat="41.0012951" lon="16.9143346"><ele>155.0</ele><time>2026-04-28T13:42:49.974Z</time></trkpt><trkpt lat="41.0011828" lon="16.9142859"><ele>155.0</ele><time>2026-04-28T13:42:51.974Z</time></trkpt><trkpt lat="41.0010677" lon="16.9142579"><ele>155.0</ele><time>2026-04-28T13:42:53.974Z</time></trkpt><trkpt lat="41.0009649" lon="16.9141688"><ele>155.0</ele><time>2026-04-28T13:42:55.974Z</time></trkpt><trkpt lat="41.0009112" lon="16.914124"><ele>155.0</ele><time>2026-04-28T13:42:56.974Z</time></trkpt><trkpt lat="41.0008561" lon="16.914081"><ele>155.0</ele><time>2026-04-28T13:42:57.974Z</time></trkpt><trkpt lat="41.0007997" lon="16.9140406"><ele>155.0</ele><time>2026-04-28T13:42:58.974Z</time></trkpt><trkpt lat="41.0007406" lon="16.9140002"><ele>155.0</ele><time>2026-04-28T13:42:59.974Z</time></trkpt><trkpt lat="41.0006829" lon="16.9139601"><ele>155.0</ele><time>2026-04-28T13:43:00.974Z</time></trkpt><trkpt lat="41.000624" lon="16.9139196"><ele>155.0</ele><time>2026-04-28T13:43:01.974Z</time></trkpt><trkpt lat="41.0005646" lon="16.9138769"><ele>155.14285714285714</ele><time>2026-04-28T13:43:02.974Z</time></trkpt><trkpt lat="41.0005048" lon="16.9138347"><ele>155.28571428571428</ele><time>2026-04-28T13:43:03.974Z</time></trkpt><trkpt lat="41.0004448" lon="16.9137953"><ele>155.42857142857144</ele><time>2026-04-28T13:43:04.974Z</time></trkpt><trkpt lat="41.0003841" lon="16.9137557"><ele>155.57142857142856</ele><time>2026-04-28T13:43:05.974Z</time></trkpt><trkpt lat="41.0003229" lon="16.9137159"><ele>155.7142857142857</ele><time>2026-04-28T13:43:06.975Z</time></trkpt><trkpt lat="41.0002613" lon="16.9136806"><ele>155.85714285714286</ele><time>2026-04-28T13:43:07.974Z</time></trkpt><trkpt lat="41.0001989" lon="16.9136508"><ele>156.0</ele><time>2026-04-28T13:43:08.974Z</time></trkpt><trkpt lat="41.0001353" lon="16.9136252"><ele>156.0</ele><time>2026-04-28T13:43:09.974Z</time></trkpt><trkpt lat="41.0000719" lon="16.9136064"><ele>156.0</ele><time>2026-04-28T13:43:10.974Z</time></trkpt><trkpt lat="41.0000082" lon="16.9135905"><ele>156.0</ele><time>2026-04-28T13:43:11.974Z</time></trkpt><trkpt lat="40.9999426" lon="16.9135771"><ele>156.0</ele><time>2026-04-28T13:43:12.974Z</time></trkpt><trkpt lat="40.9998785" lon="16.9135653"><ele>156.0</ele><time>2026-04-28T13:43:13.974Z</time></trkpt><trkpt lat="40.9998143" lon="16.9135622"><ele>156.0</ele><time>2026-04-28T13:43:14.974Z</time></trkpt><trkpt lat="40.9997503" lon="16.9135664"><ele>156.0</ele><time>2026-04-28T13:43:15.974Z</time></trkpt><trkpt lat="40.9996284" lon="16.9135695"><ele>156.0</ele><time>2026-04-28T13:43:17.974Z</time></trkpt><trkpt lat="40.9995155" lon="16.9135916"><ele>156.0</ele><time>2026-04-28T13:43:19.974Z</time></trkpt><trkpt lat="40.9994747" lon="16.9137186"><ele>156.0</ele><time>2026-04-28T13:43:21.974Z</time></trkpt><trkpt lat="40.9994775" lon="16.9138351"><ele>156.0</ele><time>2026-04-28T13:43:23.976Z</time></trkpt><trkpt lat="40.9994827" lon="16.9139353"><ele>156.0</ele><time>2026-04-28T13:43:26.975Z</time></trkpt><trkpt lat="40.9995037" lon="16.9140589"><ele>156.0</ele><time>2026-04-28T13:43:29.974Z</time></trkpt><trkpt lat="40.9995107" lon="16.9141766"><ele>156.0</ele><time>2026-04-28T13:43:31.974Z</time></trkpt><trkpt lat="40.9995063" lon="16.9143109"><ele>156.0</ele><time>2026-04-28T13:43:33.974Z</time></trkpt><trkpt lat="40.9994675" lon="16.9144391"><ele>156.0</ele><time>2026-04-28T13:43:35.974Z</time></trkpt><trkpt lat="40.9994284" lon="16.9145735"><ele>156.0</ele><time>2026-04-28T13:43:37.975Z</time></trkpt><trkpt lat="40.9993886" lon="16.9147087"><ele>156.0</ele><time>2026-04-28T13:43:39.974Z</time></trkpt><trkpt lat="40.9993463" lon="16.9148446"><ele>156.0</ele><time>2026-04-28T13:43:41.974Z</time></trkpt><trkpt lat="40.9993051" lon="16.9149861"><ele>156.0</ele><time>2026-04-28T13:43:43.974Z</time></trkpt><trkpt lat="40.9992636" lon="16.9151236"><ele>156.0</ele><time>2026-04-28T13:43:45.975Z</time></trkpt><trkpt lat="40.9992199" lon="16.9152624"><ele>156.0</ele><time>2026-04-28T13:43:47.974Z</time></trkpt><trkpt lat="40.9991767" lon="16.9154022"><ele>156.0</ele><time>2026-04-28T13:43:49.975Z</time></trkpt><trkpt lat="40.9991355" lon="16.9155371"><ele>156.0</ele><time>2026-04-28T13:43:51.975Z</time></trkpt><trkpt lat="40.9990853" lon="16.9156685"><ele>156.0</ele><time>2026-04-28T13:43:53.973Z</time></trkpt><trkpt lat="40.9990441" lon="16.9158015"><ele>156.0</ele><time>2026-04-28T13:43:55.974Z</time></trkpt><trkpt lat="40.9990009" lon="16.915937"><ele>155.8</ele><time>2026-04-28T13:43:57.974Z</time></trkpt><trkpt lat="40.9989645" lon="16.9160742"><ele>155.6</ele><time>2026-04-28T13:43:59.975Z</time></trkpt><trkpt lat="40.9989265" lon="16.9162088"><ele>155.4</ele><time>2026-04-28T13:44:01.974Z</time></trkpt><trkpt lat="40.9988831" lon="16.9163447"><ele>155.2</ele><time>2026-04-28T13:44:03.974Z</time></trkpt><trkpt lat="40.9988429" lon="16.9164844"><ele>155.0</ele><time>2026-04-28T13:44:05.974Z</time></trkpt><trkpt lat="40.9987968" lon="16.9166164"><ele>155.0</ele><time>2026-04-28T13:44:07.974Z</time></trkpt><trkpt lat="40.9987524" lon="16.9167508"><ele>155.0</ele><time>2026-04-28T13:44:09.974Z</time></trkpt><trkpt lat="40.9987146" lon="16.9168887"><ele>155.0</ele><time>2026-04-28T13:44:11.974Z</time></trkpt><trkpt lat="40.9986732" lon="16.9170247"><ele>155.0</ele><time>2026-04-28T13:44:13.974Z</time></trkpt><trkpt lat="40.9986279" lon="16.9171606"><ele>155.0</ele><time>2026-04-28T13:44:15.974Z</time></trkpt><trkpt lat="40.9985931" lon="16.9173015"><ele>155.0</ele><time>2026-04-28T13:44:17.975Z</time></trkpt><trkpt lat="40.9985557" lon="16.9174417"><ele>155.0</ele><time>2026-04-28T13:44:19.974Z</time></trkpt><trkpt lat="40.998516" lon="16.9175794"><ele>155.0</ele><time>2026-04-28T13:44:21.974Z</time></trkpt><trkpt lat="40.9984769" lon="16.9177155"><ele>155.0</ele><time>2026-04-28T13:44:23.974Z</time></trkpt><trkpt lat="40.9984338" lon="16.9178501"><ele>155.0</ele><time>2026-04-28T13:44:25.975Z</time></trkpt><trkpt lat="40.9983935" lon="16.9179866"><ele>155.2</ele><time>2026-04-28T13:44:27.974Z</time></trkpt><trkpt lat="40.9983528" lon="16.9181205"><ele>155.4</ele><time>2026-04-28T13:44:29.975Z</time></trkpt><trkpt lat="40.9983138" lon="16.9182577"><ele>155.6</ele><time>2026-04-28T13:44:31.974Z</time></trkpt><trkpt lat="40.998273" lon="16.9184006"><ele>155.8</ele><time>2026-04-28T13:44:33.974Z</time></trkpt><trkpt lat="40.9982335" lon="16.9185375"><ele>156.0</ele><time>2026-04-28T13:44:35.975Z</time></trkpt><trkpt lat="40.9981942" lon="16.9186733"><ele>156.0</ele><time>2026-04-28T13:44:37.975Z</time></trkpt><trkpt lat="40.998151" lon="16.9188077"><ele>156.0</ele><time>2026-04-28T13:44:39.974Z</time></trkpt><trkpt lat="40.9981061" lon="16.9189371"><ele>156.0</ele><time>2026-04-28T13:44:41.975Z</time></trkpt><trkpt lat="40.9980819" lon="16.9190769"><ele>156.0</ele><time>2026-04-28T13:44:43.975Z</time></trkpt><trkpt lat="40.9980715" lon="16.9192192"><ele>156.0</ele><time>2026-04-28T13:44:45.974Z</time></trkpt><trkpt lat="40.9980656" lon="16.9193561"><ele>156.0</ele><time>2026-04-28T13:44:47.974Z</time></trkpt><trkpt lat="40.9980757" lon="16.9194898"><ele>156.0</ele><time>2026-04-28T13:44:49.974Z</time></trkpt><trkpt lat="40.998096" lon="16.9196197"><ele>156.0</ele><time>2026-04-28T13:44:51.974Z</time></trkpt><trkpt lat="40.9980902" lon="16.9197553"><ele>156.0</ele><time>2026-04-28T13:44:53.974Z</time></trkpt><trkpt lat="40.99807" lon="16.9198913"><ele>156.0</ele><time>2026-04-28T13:44:55.974Z</time></trkpt><trkpt lat="40.9980482" lon="16.92003"><ele>156.0</ele><time>2026-04-28T13:44:57.974Z</time></trkpt><trkpt lat="40.9980218" lon="16.9201686"><ele>156.0</ele><time>2026-04-28T13:44:59.974Z</time></trkpt><trkpt lat="40.9980006" lon="16.9203009"><ele>156.0</ele><time>2026-04-28T13:45:01.974Z</time></trkpt><trkpt lat="40.997983" lon="16.9204388"><ele>156.0</ele><time>2026-04-28T13:45:03.974Z</time></trkpt><trkpt lat="40.9979608" lon="16.9205787"><ele>156.0</ele><time>2026-04-28T13:45:05.974Z</time></trkpt><trkpt lat="40.9979436" lon="16.9207206"><ele>156.0</ele><time>2026-04-28T13:45:07.974Z</time></trkpt><trkpt lat="40.9979289" lon="16.9208619"><ele>156.0</ele><time>2026-04-28T13:45:09.974Z</time></trkpt><trkpt lat="40.997905" lon="16.9209998"><ele>156.0</ele><time>2026-04-28T13:45:11.974Z</time></trkpt><trkpt lat="40.9978881" lon="16.9211405"><ele>156.0</ele><time>2026-04-28T13:45:13.974Z</time></trkpt><trkpt lat="40.9978664" lon="16.921283"><ele>156.0</ele><time>2026-04-28T13:45:15.973Z</time></trkpt><trkpt lat="40.9978412" lon="16.9214258"><ele>156.2</ele><time>2026-04-28T13:45:17.973Z</time></trkpt><trkpt lat="40.9978195" lon="16.9215671"><ele>156.39999999999998</ele><time>2026-04-28T13:45:19.973Z</time></trkpt><trkpt lat="40.997797" lon="16.9217092"><ele>156.6</ele><time>2026-04-28T13:45:21.973Z</time></trkpt><trkpt lat="40.9977843" lon="16.9218549"><ele>156.79999999999998</ele><time>2026-04-28T13:45:23.973Z</time></trkpt><trkpt lat="40.9977728" lon="16.9219999"><ele>157.0</ele><time>2026-04-28T13:45:25.973Z</time></trkpt><trkpt lat="40.997758" lon="16.9221416"><ele>157.0</ele><time>2026-04-28T13:45:27.974Z</time></trkpt><trkpt lat="40.997738" lon="16.9222828"><ele>157.0</ele><time>2026-04-28T13:45:29.973Z</time></trkpt><trkpt lat="40.997717" lon="16.9224238"><ele>157.0</ele><time>2026-04-28T13:45:31.973Z</time></trkpt><trkpt lat="40.9976923" lon="16.9225676"><ele>157.0</ele><time>2026-04-28T13:45:33.974Z</time></trkpt><trkpt lat="40.9976586" lon="16.9227111"><ele>157.0</ele><time>2026-04-28T13:45:35.973Z</time></trkpt><trkpt lat="40.9976133" lon="16.9228486"><ele>156.79999999999998</ele><time>2026-04-28T13:45:37.973Z</time></trkpt><trkpt lat="40.9975708" lon="16.9229856"><ele>156.6</ele><time>2026-04-28T13:45:39.974Z</time></trkpt><trkpt lat="40.9975252" lon="16.9231169"><ele>156.39999999999998</ele><time>2026-04-28T13:45:41.973Z</time></trkpt><trkpt lat="40.997482" lon="16.923241"><ele>156.2</ele><time>2026-04-28T13:45:43.973Z</time></trkpt><trkpt lat="40.9974712" lon="16.9233634"><ele>156.0</ele><time>2026-04-28T13:45:45.973Z</time></trkpt><trkpt lat="40.9974949" lon="16.9234699"><ele>156.2</ele><time>2026-04-28T13:45:47.973Z</time></trkpt><trkpt lat="40.9975425" lon="16.9235788"><ele>156.39999999999998</ele><time>2026-04-28T13:45:49.973Z</time></trkpt><trkpt lat="40.9975886" lon="16.9237056"><ele>156.6</ele><time>2026-04-28T13:45:51.973Z</time></trkpt><trkpt lat="40.9976185" lon="16.9238487"><ele>156.79999999999998</ele><time>2026-04-28T13:45:53.974Z</time></trkpt><trkpt lat="40.9976328" lon="16.9239952"><ele>157.0</ele><time>2026-04-28T13:45:55.973Z</time></trkpt><trkpt lat="40.9976249" lon="16.9241466"><ele>156.75</ele><time>2026-04-28T13:45:57.973Z</time></trkpt><trkpt lat="40.997616" lon="16.9243043"><ele>156.5</ele><time>2026-04-28T13:45:59.974Z</time></trkpt><trkpt lat="40.9976086" lon="16.9244602"><ele>156.25</ele><time>2026-04-28T13:46:01.973Z</time></trkpt><trkpt lat="40.9975989" lon="16.9246184"><ele>156.0</ele><time>2026-04-28T13:46:03.974Z</time></trkpt><trkpt lat="40.9975908" lon="16.9247754"><ele>156.0</ele><time>2026-04-28T13:46:05.973Z</time></trkpt><trkpt lat="40.9975799" lon="16.9249343"><ele>156.0</ele><time>2026-04-28T13:46:07.974Z</time></trkpt><trkpt lat="40.9975714" lon="16.9250944"><ele>156.0</ele><time>2026-04-28T13:46:09.973Z</time></trkpt><trkpt lat="40.9975703" lon="16.9252513"><ele>156.0</ele><time>2026-04-28T13:46:11.973Z</time></trkpt><trkpt lat="40.9975599" lon="16.9254019"><ele>155.8</ele><time>2026-04-28T13:46:13.973Z</time></trkpt><trkpt lat="40.9975516" lon="16.9255511"><ele>155.6</ele><time>2026-04-28T13:46:15.973Z</time></trkpt><trkpt lat="40.9975455" lon="16.9256991"><ele>155.4</ele><time>2026-04-28T13:46:17.974Z</time></trkpt><trkpt lat="40.9975299" lon="16.9258461"><ele>155.2</ele><time>2026-04-28T13:46:19.973Z</time></trkpt><trkpt lat="40.9975076" lon="16.9259916"><ele>155.0</ele><time>2026-04-28T13:46:21.973Z</time></trkpt><trkpt lat="40.9974769" lon="16.9261295"><ele>155.0</ele><time>2026-04-28T13:46:23.975Z</time></trkpt><trkpt lat="40.9974266" lon="16.9262604"><ele>155.0</ele><time>2026-04-28T13:46:25.973Z</time></trkpt><trkpt lat="40.9973669" lon="16.9263893"><ele>155.0</ele><time>2026-04-28T13:46:27.974Z</time></trkpt><trkpt lat="40.9973049" lon="16.926516"><ele>155.0</ele><time>2026-04-28T13:46:29.973Z</time></trkpt><trkpt lat="40.9972587" lon="16.92665"><ele>155.2</ele><time>2026-04-28T13:46:31.974Z</time></trkpt><trkpt lat="40.997229" lon="16.9267906"><ele>155.4</ele><time>2026-04-28T13:46:33.973Z</time></trkpt><trkpt lat="40.9972075" lon="16.9269324"><ele>155.6</ele><time>2026-04-28T13:46:35.973Z</time></trkpt><trkpt lat="40.9971871" lon="16.927076"><ele>155.8</ele><time>2026-04-28T13:46:37.973Z</time></trkpt><trkpt lat="40.9971828" lon="16.9272275"><ele>156.0</ele><time>2026-04-28T13:46:39.974Z</time></trkpt><trkpt lat="40.9972068" lon="16.9273714"><ele>156.0</ele><time>2026-04-28T13:46:41.973Z</time></trkpt><trkpt lat="40.9972464" lon="16.9275069"><ele>156.0</ele><time>2026-04-28T13:46:43.973Z</time></trkpt><trkpt lat="40.9972901" lon="16.9276441"><ele>156.0</ele><time>2026-04-28T13:46:45.974Z</time></trkpt><trkpt lat="40.9973203" lon="16.9277856"><ele>156.0</ele><time>2026-04-28T13:46:47.974Z</time></trkpt><trkpt lat="40.9973405" lon="16.9279249"><ele>156.0</ele><time>2026-04-28T13:46:49.973Z</time></trkpt><trkpt lat="40.9973558" lon="16.9280678"><ele>156.0</ele><time>2026-04-28T13:46:51.974Z</time></trkpt><trkpt lat="40.9973678" lon="16.928222"><ele>156.0</ele><time>2026-04-28T13:46:53.973Z</time></trkpt><trkpt lat="40.9973767" lon="16.928377"><ele>156.0</ele><time>2026-04-28T13:46:55.973Z</time></trkpt><trkpt lat="40.997385" lon="16.9285337"><ele>156.0</ele><time>2026-04-28T13:46:57.973Z</time></trkpt><trkpt lat="40.9973811" lon="16.9286924"><ele>156.0</ele><time>2026-04-28T13:46:59.973Z</time></trkpt><trkpt lat="40.9973609" lon="16.9288457"><ele>156.0</ele><time>2026-04-28T13:47:01.974Z</time></trkpt><trkpt lat="40.9973382" lon="16.9290006"><ele>156.0</ele><time>2026-04-28T13:47:03.973Z</time></trkpt><trkpt lat="40.9973255" lon="16.9291558"><ele>156.0</ele><time>2026-04-28T13:47:05.973Z</time></trkpt><trkpt lat="40.9973045" lon="16.9293105"><ele>156.0</ele><time>2026-04-28T13:47:07.974Z</time></trkpt><trkpt lat="40.9972861" lon="16.9294637"><ele>156.0</ele><time>2026-04-28T13:47:09.974Z</time></trkpt><trkpt lat="40.9972678" lon="16.9296195"><ele>156.0</ele><time>2026-04-28T13:47:11.973Z</time></trkpt><trkpt lat="40.99725" lon="16.9297749"><ele>156.0</ele><time>2026-04-28T13:47:13.974Z</time></trkpt><trkpt lat="40.9972338" lon="16.9299303"><ele>156.0</ele><time>2026-04-28T13:47:15.973Z</time></trkpt><trkpt lat="40.9972133" lon="16.9300831"><ele>156.0</ele><time>2026-04-28T13:47:17.973Z</time></trkpt><trkpt lat="40.9971934" lon="16.9302386"><ele>156.0</ele><time>2026-04-28T13:47:19.973Z</time></trkpt><trkpt lat="40.9971711" lon="16.9303925"><ele>156.0</ele><time>2026-04-28T13:47:21.973Z</time></trkpt><trkpt lat="40.9971546" lon="16.9305445"><ele>156.0</ele><time>2026-04-28T13:47:23.974Z</time></trkpt><trkpt lat="40.9971365" lon="16.9306956"><ele>156.0</ele><time>2026-04-28T13:47:25.973Z</time></trkpt><trkpt lat="40.9971178" lon="16.9308493"><ele>156.0</ele><time>2026-04-28T13:47:27.974Z</time></trkpt><trkpt lat="40.9970994" lon="16.9310007"><ele>156.0</ele><time>2026-04-28T13:47:29.973Z</time></trkpt><trkpt lat="40.997078" lon="16.9311493"><ele>156.0</ele><time>2026-04-28T13:47:31.974Z</time></trkpt><trkpt lat="40.9970472" lon="16.9312956"><ele>156.0</ele><time>2026-04-28T13:47:33.973Z</time></trkpt><trkpt lat="40.9970172" lon="16.9314428"><ele>156.0</ele><time>2026-04-28T13:47:35.973Z</time></trkpt><trkpt lat="40.9969862" lon="16.9315904"><ele>156.0</ele><time>2026-04-28T13:47:37.974Z</time></trkpt><trkpt lat="40.9969541" lon="16.9317396"><ele>156.0</ele><time>2026-04-28T13:47:39.973Z</time></trkpt><trkpt lat="40.9969243" lon="16.9318935"><ele>156.0</ele><time>2026-04-28T13:47:41.973Z</time></trkpt><trkpt lat="40.9968928" lon="16.9320458"><ele>156.0</ele><time>2026-04-28T13:47:43.973Z</time></trkpt><trkpt lat="40.9968616" lon="16.9321985"><ele>156.0</ele><time>2026-04-28T13:47:45.973Z</time></trkpt><trkpt lat="40.9968288" lon="16.9323513"><ele>156.0</ele><time>2026-04-28T13:47:47.973Z</time></trkpt><trkpt lat="40.9968034" lon="16.932507"><ele>156.0</ele><time>2026-04-28T13:47:49.973Z</time></trkpt><trkpt lat="40.9967716" lon="16.932662"><ele>156.0</ele><time>2026-04-28T13:47:51.973Z</time></trkpt><trkpt lat="40.9967374" lon="16.9328117"><ele>156.0</ele><time>2026-04-28T13:47:53.974Z</time></trkpt><trkpt lat="40.9967347" lon="16.9329717"><ele>156.0</ele><time>2026-04-28T13:47:55.973Z</time></trkpt><trkpt lat="40.9967396" lon="16.9331309"><ele>156.0</ele><time>2026-04-28T13:47:57.973Z</time></trkpt><trkpt lat="40.9967411" lon="16.9332883"><ele>156.0</ele><time>2026-04-28T13:47:59.973Z</time></trkpt><trkpt lat="40.9967428" lon="16.9334448"><ele>156.0</ele><time>2026-04-28T13:48:01.973Z</time></trkpt><trkpt lat="40.9967442" lon="16.9336028"><ele>155.75</ele><time>2026-04-28T13:48:03.974Z</time></trkpt><trkpt lat="40.9967465" lon="16.9337596"><ele>155.5</ele><time>2026-04-28T13:48:05.974Z</time></trkpt><trkpt lat="40.9967515" lon="16.9339221"><ele>155.25</ele><time>2026-04-28T13:48:07.974Z</time></trkpt><trkpt lat="40.9967585" lon="16.934085"><ele>155.0</ele><time>2026-04-28T13:48:09.973Z</time></trkpt><trkpt lat="40.99676" lon="16.9342443"><ele>155.5</ele><time>2026-04-28T13:48:11.973Z</time></trkpt><trkpt lat="40.9967616" lon="16.934401"><ele>156.0</ele><time>2026-04-28T13:48:13.974Z</time></trkpt><trkpt lat="40.9967569" lon="16.9345607"><ele>156.5</ele><time>2026-04-28T13:48:15.973Z</time></trkpt><trkpt lat="40.9967607" lon="16.9347181"><ele>157.0</ele><time>2026-04-28T13:48:17.973Z</time></trkpt><trkpt lat="40.9967717" lon="16.934875"><ele>157.0</ele><time>2026-04-28T13:48:19.973Z</time></trkpt><trkpt lat="40.9967736" lon="16.9350332"><ele>157.0</ele><time>2026-04-28T13:48:21.973Z</time></trkpt><trkpt lat="40.9967783" lon="16.9351953"><ele>157.0</ele><time>2026-04-28T13:48:23.973Z</time></trkpt><trkpt lat="40.9967814" lon="16.935354"><ele>157.0</ele><time>2026-04-28T13:48:25.973Z</time></trkpt><trkpt lat="40.9967808" lon="16.935514"><ele>157.0</ele><time>2026-04-28T13:48:27.973Z</time></trkpt><trkpt lat="40.9967878" lon="16.9356754"><ele>157.0</ele><time>2026-04-28T13:48:29.974Z</time></trkpt><trkpt lat="40.9967932" lon="16.9358364"><ele>157.0</ele><time>2026-04-28T13:48:31.973Z</time></trkpt><trkpt lat="40.996815" lon="16.9359964"><ele>157.0</ele><time>2026-04-28T13:48:33.973Z</time></trkpt><trkpt lat="40.9968435" lon="16.9361542"><ele>157.0</ele><time>2026-04-28T13:48:35.974Z</time></trkpt><trkpt lat="40.9968641" lon="16.9363119"><ele>157.0</ele><time>2026-04-28T13:48:37.973Z</time></trkpt><trkpt lat="40.9968798" lon="16.9364708"><ele>157.0</ele><time>2026-04-28T13:48:39.973Z</time></trkpt><trkpt lat="40.99689" lon="16.9366228"><ele>157.0</ele><time>2026-04-28T13:48:41.973Z</time></trkpt><trkpt lat="40.9969066" lon="16.9367747"><ele>156.75</ele><time>2026-04-28T13:48:43.973Z</time></trkpt><trkpt lat="40.9969174" lon="16.9369342"><ele>156.5</ele><time>2026-04-28T13:48:45.973Z</time></trkpt><trkpt lat="40.9969195" lon="16.9370862"><ele>156.25</ele><time>2026-04-28T13:48:47.974Z</time></trkpt><trkpt lat="40.996919" lon="16.9372413"><ele>156.0</ele><time>2026-04-28T13:48:49.973Z</time></trkpt><trkpt lat="40.9969063" lon="16.9373976"><ele>156.0</ele><time>2026-04-28T13:48:51.973Z</time></trkpt><trkpt lat="40.9968934" lon="16.9375502"><ele>156.0</ele><time>2026-04-28T13:48:53.973Z</time></trkpt><trkpt lat="40.99689" lon="16.937705"><ele>156.0</ele><time>2026-04-28T13:48:55.973Z</time></trkpt><trkpt lat="40.9969145" lon="16.9378493"><ele>156.0</ele><time>2026-04-28T13:48:57.974Z</time></trkpt><trkpt lat="40.9969411" lon="16.9379936"><ele>156.0</ele><time>2026-04-28T13:48:59.973Z</time></trkpt><trkpt lat="40.9969766" lon="16.9381353"><ele>156.0</ele><time>2026-04-28T13:49:01.974Z</time></trkpt><trkpt lat="40.9970096" lon="16.9382763"><ele>156.0</ele><time>2026-04-28T13:49:03.973Z</time></trkpt><trkpt lat="40.9970481" lon="16.9384141"><ele>156.0</ele><time>2026-04-28T13:49:05.974Z</time></trkpt><trkpt lat="40.9970655" lon="16.9385533"><ele>156.0</ele><time>2026-04-28T13:49:07.973Z</time></trkpt><trkpt lat="40.9970531" lon="16.9386936"><ele>156.0</ele><time>2026-04-28T13:49:09.974Z</time></trkpt><trkpt lat="40.9970502" lon="16.9388364"><ele>156.0</ele><time>2026-04-28T13:49:11.974Z</time></trkpt><trkpt lat="40.9970415" lon="16.9389797"><ele>156.0</ele><time>2026-04-28T13:49:13.975Z</time></trkpt><trkpt lat="40.9970337" lon="16.9391234"><ele>156.0</ele><time>2026-04-28T13:49:15.973Z</time></trkpt><trkpt lat="40.9970298" lon="16.9392658"><ele>156.0</ele><time>2026-04-28T13:49:17.974Z</time></trkpt><trkpt lat="40.9970315" lon="16.9394068"><ele>155.75</ele><time>2026-04-28T13:49:19.973Z</time></trkpt><trkpt lat="40.9970435" lon="16.9395523"><ele>155.5</ele><time>2026-04-28T13:49:21.973Z</time></trkpt><trkpt lat="40.9970537" lon="16.9397032"><ele>155.25</ele><time>2026-04-28T13:49:23.973Z</time></trkpt><trkpt lat="40.9970698" lon="16.9398564"><ele>155.0</ele><time>2026-04-28T13:49:25.973Z</time></trkpt><trkpt lat="40.9971065" lon="16.9400058"><ele>154.75</ele><time>2026-04-28T13:49:27.973Z</time></trkpt><trkpt lat="40.9971448" lon="16.9401586"><ele>154.5</ele><time>2026-04-28T13:49:29.974Z</time></trkpt><trkpt lat="40.997182" lon="16.9403102"><ele>154.25</ele><time>2026-04-28T13:49:31.973Z</time></trkpt><trkpt lat="40.9972209" lon="16.9404585"><ele>154.0</ele><time>2026-04-28T13:49:33.974Z</time></trkpt><trkpt lat="40.997259" lon="16.940591"><ele>154.0</ele><time>2026-04-28T13:49:35.974Z</time></trkpt><trkpt lat="40.9972877" lon="16.9407115"><ele>154.0</ele><time>2026-04-28T13:49:37.975Z</time></trkpt><trkpt lat="40.9972359" lon="16.940805"><ele>154.0</ele><time>2026-04-28T13:49:39.974Z</time></trkpt><trkpt lat="40.997142" lon="16.9408225"><ele>154.0</ele><time>2026-04-28T13:49:41.973Z</time></trkpt><trkpt lat="40.9970441" lon="16.9408171"><ele>154.0</ele><time>2026-04-28T13:49:43.974Z</time></trkpt><trkpt lat="40.9969486" lon="16.9408268"><ele>154.0</ele><time>2026-04-28T13:49:45.974Z</time></trkpt><trkpt lat="40.9968526" lon="16.9408316"><ele>154.0</ele><time>2026-04-28T13:49:47.974Z</time></trkpt><trkpt lat="40.9967539" lon="16.940836"><ele>154.0</ele><time>2026-04-28T13:49:49.973Z</time></trkpt><trkpt lat="40.9966558" lon="16.9408379"><ele>154.0</ele><time>2026-04-28T13:49:51.973Z</time></trkpt><trkpt lat="40.996555" lon="16.9408409"><ele>154.0</ele><time>2026-04-28T13:49:53.973Z</time></trkpt><trkpt lat="40.9964493" lon="16.9408415"><ele>154.2</ele><time>2026-04-28T13:49:55.973Z</time></trkpt><trkpt lat="40.996344" lon="16.9408482"><ele>154.4</ele><time>2026-04-28T13:49:57.973Z</time></trkpt><trkpt lat="40.9962375" lon="16.9408495"><ele>154.6</ele><time>2026-04-28T13:49:59.973Z</time></trkpt><trkpt lat="40.9961275" lon="16.940854"><ele>154.8</ele><time>2026-04-28T13:50:01.973Z</time></trkpt><trkpt lat="40.9960162" lon="16.9408574"><ele>155.0</ele><time>2026-04-28T13:50:03.974Z</time></trkpt><trkpt lat="40.9959067" lon="16.9408679"><ele>155.4</ele><time>2026-04-28T13:50:05.973Z</time></trkpt><trkpt lat="40.9957948" lon="16.9408766"><ele>155.8</ele><time>2026-04-28T13:50:07.973Z</time></trkpt><trkpt lat="40.995685" lon="16.9408896"><ele>156.2</ele><time>2026-04-28T13:50:09.974Z</time></trkpt><trkpt lat="40.9955721" lon="16.9409002"><ele>156.6</ele><time>2026-04-28T13:50:11.973Z</time></trkpt><trkpt lat="40.9954632" lon="16.9409122"><ele>157.0</ele><time>2026-04-28T13:50:13.973Z</time></trkpt><trkpt lat="40.9953514" lon="16.9409249"><ele>157.0</ele><time>2026-04-28T13:50:15.973Z</time></trkpt><trkpt lat="40.995237" lon="16.9409319"><ele>157.0</ele><time>2026-04-28T13:50:17.973Z</time></trkpt><trkpt lat="40.9951218" lon="16.9409458"><ele>157.0</ele><time>2026-04-28T13:50:19.973Z</time></trkpt><trkpt lat="40.9950075" lon="16.9409621"><ele>157.0</ele><time>2026-04-28T13:50:21.973Z</time></trkpt><trkpt lat="40.9948945" lon="16.9409774"><ele>157.25</ele><time>2026-04-28T13:50:23.973Z</time></trkpt><trkpt lat="40.9947828" lon="16.9409925"><ele>157.5</ele><time>2026-04-28T13:50:25.974Z</time></trkpt><trkpt lat="40.9946676" lon="16.9410052"><ele>157.75</ele><time>2026-04-28T13:50:27.973Z</time></trkpt><trkpt lat="40.9945521" lon="16.9410138"><ele>158.0</ele><time>2026-04-28T13:50:29.974Z</time></trkpt><trkpt lat="40.9944374" lon="16.9410305"><ele>158.0</ele><time>2026-04-28T13:50:31.973Z</time></trkpt><trkpt lat="40.9943254" lon="16.9410443"><ele>158.0</ele><time>2026-04-28T13:50:33.973Z</time></trkpt><trkpt lat="40.9942117" lon="16.941052"><ele>158.0</ele><time>2026-04-28T13:50:35.973Z</time></trkpt><trkpt lat="40.9941003" lon="16.9410595"><ele>158.0</ele><time>2026-04-28T13:50:37.973Z</time></trkpt><trkpt lat="40.9939832" lon="16.941079"><ele>158.25</ele><time>2026-04-28T13:50:39.973Z</time></trkpt><trkpt lat="40.99387" lon="16.9410888"><ele>158.5</ele><time>2026-04-28T13:50:41.973Z</time></trkpt><trkpt lat="40.9937563" lon="16.9411042"><ele>158.75</ele><time>2026-04-28T13:50:43.973Z</time></trkpt><trkpt lat="40.9936439" lon="16.9411149"><ele>159.0</ele><time>2026-04-28T13:50:45.973Z</time></trkpt><trkpt lat="40.9935312" lon="16.941124"><ele>159.0</ele><time>2026-04-28T13:50:47.973Z</time></trkpt><trkpt lat="40.9934206" lon="16.9411335"><ele>159.0</ele><time>2026-04-28T13:50:49.974Z</time></trkpt><trkpt lat="40.9933103" lon="16.9411465"><ele>159.0</ele><time>2026-04-28T13:50:51.973Z</time></trkpt><trkpt lat="40.9932009" lon="16.9411573"><ele>159.0</ele><time>2026-04-28T13:50:53.973Z</time></trkpt><trkpt lat="40.9930917" lon="16.9411705"><ele>159.0</ele><time>2026-04-28T13:50:55.974Z</time></trkpt><trkpt lat="40.9929829" lon="16.9411811"><ele>159.0</ele><time>2026-04-28T13:50:57.973Z</time></trkpt><trkpt lat="40.9928768" lon="16.9411965"><ele>159.0</ele><time>2026-04-28T13:50:59.974Z</time></trkpt><trkpt lat="40.9927702" lon="16.9412033"><ele>159.0</ele><time>2026-04-28T13:51:01.973Z</time></trkpt><trkpt lat="40.9926654" lon="16.9412109"><ele>159.0</ele><time>2026-04-28T13:51:03.975Z</time></trkpt><trkpt lat="40.9925999" lon="16.9413098"><ele>159.0</ele><time>2026-04-28T13:51:05.973Z</time></trkpt><trkpt lat="40.9926082" lon="16.9414353"><ele>159.0</ele><time>2026-04-28T13:51:07.973Z</time></trkpt><trkpt lat="40.9926278" lon="16.9415744"><ele>159.0</ele><time>2026-04-28T13:51:09.974Z</time></trkpt><trkpt lat="40.992636" lon="16.9417166"><ele>159.0</ele><time>2026-04-28T13:51:11.974Z</time></trkpt><trkpt lat="40.9926437" lon="16.9418604"><ele>159.0</ele><time>2026-04-28T13:51:13.973Z</time></trkpt><trkpt lat="40.9926542" lon="16.9420094"><ele>159.0</ele><time>2026-04-28T13:51:15.974Z</time></trkpt><trkpt lat="40.9926639" lon="16.942157"><ele>158.75</ele><time>2026-04-28T13:51:17.973Z</time></trkpt><trkpt lat="40.9926768" lon="16.9423037"><ele>158.5</ele><time>2026-04-28T13:51:19.974Z</time></trkpt><trkpt lat="40.9926882" lon="16.9424531"><ele>158.25</ele><time>2026-04-28T13:51:21.973Z</time></trkpt><trkpt lat="40.9926959" lon="16.9426046"><ele>158.0</ele><time>2026-04-28T13:51:23.974Z</time></trkpt><trkpt lat="40.9927058" lon="16.9427582"><ele>158.0</ele><time>2026-04-28T13:51:25.974Z</time></trkpt><trkpt lat="40.9927139" lon="16.9429107"><ele>158.0</ele><time>2026-04-28T13:51:27.974Z</time></trkpt><trkpt lat="40.9927254" lon="16.9430599"><ele>158.0</ele><time>2026-04-28T13:51:29.973Z</time></trkpt><trkpt lat="40.9927377" lon="16.9432086"><ele>158.0</ele><time>2026-04-28T13:51:31.974Z</time></trkpt><trkpt lat="40.9927516" lon="16.943355"><ele>158.0</ele><time>2026-04-28T13:51:33.973Z</time></trkpt><trkpt lat="40.9927586" lon="16.9435035"><ele>158.0</ele><time>2026-04-28T13:51:35.973Z</time></trkpt><trkpt lat="40.9927572" lon="16.9436412"><ele>158.0</ele><time>2026-04-28T13:51:37.973Z</time></trkpt><trkpt lat="40.9926898" lon="16.9437239"><ele>158.0</ele><time>2026-04-28T13:51:39.973Z</time></trkpt><trkpt lat="40.9925935" lon="16.9437273"><ele>158.0</ele><time>2026-04-28T13:51:41.973Z</time></trkpt><trkpt lat="40.9924905" lon="16.9436963"><ele>158.0</ele><time>2026-04-28T13:51:43.974Z</time></trkpt><trkpt lat="40.9923975" lon="16.9436382"><ele>158.0</ele><time>2026-04-28T13:51:45.973Z</time></trkpt><trkpt lat="40.9923103" lon="16.9435543"><ele>158.0</ele><time>2026-04-28T13:51:47.973Z</time></trkpt><trkpt lat="40.9922231" lon="16.943462"><ele>158.0</ele><time>2026-04-28T13:51:49.973Z</time></trkpt><trkpt lat="40.9921343" lon="16.9433711"><ele>158.0</ele><time>2026-04-28T13:51:51.973Z</time></trkpt><trkpt lat="40.9920448" lon="16.9432871"><ele>158.4</ele><time>2026-04-28T13:51:53.973Z</time></trkpt><trkpt lat="40.9919627" lon="16.9431985"><ele>158.8</ele><time>2026-04-28T13:51:55.973Z</time></trkpt><trkpt lat="40.9918772" lon="16.9431156"><ele>159.2</ele><time>2026-04-28T13:51:57.973Z</time></trkpt><trkpt lat="40.9917928" lon="16.943026"><ele>159.6</ele><time>2026-04-28T13:51:59.973Z</time></trkpt><trkpt lat="40.9917144" lon="16.9429304"><ele>160.0</ele><time>2026-04-28T13:52:01.974Z</time></trkpt><trkpt lat="40.9916373" lon="16.9428324"><ele>160.0</ele><time>2026-04-28T13:52:03.973Z</time></trkpt><trkpt lat="40.9915618" lon="16.9427395"><ele>160.0</ele><time>2026-04-28T13:52:05.973Z</time></trkpt><trkpt lat="40.9914853" lon="16.9426461"><ele>160.0</ele><time>2026-04-28T13:52:07.973Z</time></trkpt><trkpt lat="40.9914077" lon="16.9425576"><ele>160.0</ele><time>2026-04-28T13:52:09.974Z</time></trkpt><trkpt lat="40.9913176" lon="16.9424915"><ele>160.0</ele><time>2026-04-28T13:52:11.974Z</time></trkpt><trkpt lat="40.9912165" lon="16.9424741"><ele>160.2</ele><time>2026-04-28T13:52:13.974Z</time></trkpt><trkpt lat="40.9911082" lon="16.9424796"><ele>160.4</ele><time>2026-04-28T13:52:15.973Z</time></trkpt><trkpt lat="40.9910007" lon="16.9424777"><ele>160.60000000000002</ele><time>2026-04-28T13:52:17.973Z</time></trkpt><trkpt lat="40.9908943" lon="16.9424871"><ele>160.8</ele><time>2026-04-28T13:52:19.974Z</time></trkpt><trkpt lat="40.9907863" lon="16.9424809"><ele>161.0</ele><time>2026-04-28T13:52:21.973Z</time></trkpt><trkpt lat="40.9906785" lon="16.9424874"><ele>161.20000000000002</ele><time>2026-04-28T13:52:23.973Z</time></trkpt><trkpt lat="40.9905714" lon="16.9424967"><ele>161.4</ele><time>2026-04-28T13:52:25.974Z</time></trkpt><trkpt lat="40.990465" lon="16.9425066"><ele>161.6</ele><time>2026-04-28T13:52:27.973Z</time></trkpt><trkpt lat="40.9903577" lon="16.942517"><ele>161.8</ele><time>2026-04-28T13:52:29.974Z</time></trkpt><trkpt lat="40.9902531" lon="16.9425368"><ele>162.0</ele><time>2026-04-28T13:52:31.973Z</time></trkpt><trkpt lat="40.9901516" lon="16.9425545"><ele>162.0</ele><time>2026-04-28T13:52:33.974Z</time></trkpt><trkpt lat="40.9900447" lon="16.942573"><ele>162.0</ele><time>2026-04-28T13:52:35.973Z</time></trkpt><trkpt lat="40.9899405" lon="16.9426019"><ele>162.0</ele><time>2026-04-28T13:52:37.974Z</time></trkpt><trkpt lat="40.9898371" lon="16.9426454"><ele>162.0</ele><time>2026-04-28T13:52:39.973Z</time></trkpt><trkpt lat="40.989735" lon="16.9426944"><ele>162.0</ele><time>2026-04-28T13:52:41.974Z</time></trkpt><trkpt lat="40.9896292" lon="16.9427328"><ele>162.0</ele><time>2026-04-28T13:52:43.974Z</time></trkpt><trkpt lat="40.9895247" lon="16.9427682"><ele>162.0</ele><time>2026-04-28T13:52:45.973Z</time></trkpt><trkpt lat="40.989418" lon="16.9427949"><ele>162.0</ele><time>2026-04-28T13:52:47.973Z</time></trkpt><trkpt lat="40.9893134" lon="16.9428167"><ele>162.0</ele><time>2026-04-28T13:52:49.974Z</time></trkpt><trkpt lat="40.9892034" lon="16.9428263"><ele>162.0</ele><time>2026-04-28T13:52:51.973Z</time></trkpt><trkpt lat="40.9890952" lon="16.9428387"><ele>162.39999999999998</ele><time>2026-04-28T13:52:53.974Z</time></trkpt><trkpt lat="40.9889896" lon="16.9428566"><ele>162.79999999999998</ele><time>2026-04-28T13:52:55.973Z</time></trkpt><trkpt lat="40.9888874" lon="16.9428726"><ele>163.2</ele><time>2026-04-28T13:52:57.973Z</time></trkpt><trkpt lat="40.9887839" lon="16.9428926"><ele>163.6</ele><time>2026-04-28T13:52:59.973Z</time></trkpt><trkpt lat="40.9886818" lon="16.9429052"><ele>164.0</ele><time>2026-04-28T13:53:01.973Z</time></trkpt><trkpt lat="40.9885769" lon="16.9429153"><ele>164.0</ele><time>2026-04-28T13:53:03.974Z</time></trkpt><trkpt lat="40.9884691" lon="16.9429272"><ele>164.0</ele><time>2026-04-28T13:53:05.973Z</time></trkpt><trkpt lat="40.9883623" lon="16.9429309"><ele>164.0</ele><time>2026-04-28T13:53:07.975Z</time></trkpt><trkpt lat="40.9882528" lon="16.9429351"><ele>164.0</ele><time>2026-04-28T13:53:09.973Z</time></trkpt><trkpt lat="40.9881406" lon="16.9429411"><ele>164.0</ele><time>2026-04-28T13:53:11.973Z</time></trkpt><trkpt lat="40.988029" lon="16.9429408"><ele>164.39999999999998</ele><time>2026-04-28T13:53:13.973Z</time></trkpt><trkpt lat="40.9879189" lon="16.9429504"><ele>164.8</ele><time>2026-04-28T13:53:15.973Z</time></trkpt><trkpt lat="40.9878076" lon="16.9429562"><ele>165.2</ele><time>2026-04-28T13:53:17.974Z</time></trkpt><trkpt lat="40.9876948" lon="16.9429493"><ele>165.60000000000002</ele><time>2026-04-28T13:53:19.973Z</time></trkpt><trkpt lat="40.9875898" lon="16.9429417"><ele>166.0</ele><time>2026-04-28T13:53:21.974Z</time></trkpt><trkpt lat="40.9874953" lon="16.9429871"><ele>166.20000000000002</ele><time>2026-04-28T13:53:23.973Z</time></trkpt><trkpt lat="40.9874607" lon="16.9431041"><ele>166.4</ele><time>2026-04-28T13:53:25.973Z</time></trkpt><trkpt lat="40.9874633" lon="16.9432459"><ele>166.6</ele><time>2026-04-28T13:53:27.973Z</time></trkpt><trkpt lat="40.9874839" lon="16.9433965"><ele>166.8</ele><time>2026-04-28T13:53:29.973Z</time></trkpt><trkpt lat="40.9874931" lon="16.943546"><ele>167.0</ele><time>2026-04-28T13:53:31.973Z</time></trkpt><trkpt lat="40.9875011" lon="16.9436965"><ele>166.5</ele><time>2026-04-28T13:53:33.973Z</time></trkpt><trkpt lat="40.9875104" lon="16.9438485"><ele>166.0</ele><time>2026-04-28T13:53:35.973Z</time></trkpt><trkpt lat="40.9875205" lon="16.9439997"><ele>165.5</ele><time>2026-04-28T13:53:37.973Z</time></trkpt><trkpt lat="40.9875366" lon="16.9441505"><ele>165.0</ele><time>2026-04-28T13:53:39.974Z</time></trkpt><trkpt lat="40.9875465" lon="16.9443001"><ele>164.6</ele><time>2026-04-28T13:53:41.972Z</time></trkpt><trkpt lat="40.9875575" lon="16.9444433"><ele>164.2</ele><time>2026-04-28T13:53:43.973Z</time></trkpt><trkpt lat="40.9875652" lon="16.94457"><ele>163.8</ele><time>2026-04-28T13:53:45.974Z</time></trkpt><trkpt lat="40.9875719" lon="16.9446649"><ele>163.4</ele><time>2026-04-28T13:53:47.972Z</time></trkpt><trkpt lat="40.9876313" lon="16.9447621"><ele>163.0</ele><time>2026-04-28T13:53:50.973Z</time></trkpt><trkpt lat="40.9877133" lon="16.9448037"><ele>163.0</ele><time>2026-04-28T13:53:52.973Z</time></trkpt><trkpt lat="40.9878091" lon="16.9448215"><ele>163.0</ele><time>2026-04-28T13:53:54.973Z</time></trkpt><trkpt lat="40.9879116" lon="16.9448469"><ele>163.0</ele><time>2026-04-28T13:53:56.973Z</time></trkpt><trkpt lat="40.9880154" lon="16.9448823"><ele>163.0</ele><time>2026-04-28T13:53:58.972Z</time></trkpt><trkpt lat="40.9881191" lon="16.9449262"><ele>163.0</ele><time>2026-04-28T13:54:00.974Z</time></trkpt><trkpt lat="40.9882166" lon="16.9449843"><ele>163.0</ele><time>2026-04-28T13:54:02.973Z</time></trkpt><trkpt lat="40.9883174" lon="16.9450447"><ele>163.0</ele><time>2026-04-28T13:54:04.973Z</time></trkpt><trkpt lat="40.9884175" lon="16.9451088"><ele>163.0</ele><time>2026-04-28T13:54:06.974Z</time></trkpt><trkpt lat="40.9885129" lon="16.9451867"><ele>163.0</ele><time>2026-04-28T13:54:08.973Z</time></trkpt><trkpt lat="40.9886104" lon="16.9452668"><ele>163.0</ele><time>2026-04-28T13:54:10.973Z</time></trkpt><trkpt lat="40.9886999" lon="16.9453531"><ele>162.8</ele><time>2026-04-28T13:54:12.973Z</time></trkpt><trkpt lat="40.9887811" lon="16.9454518"><ele>162.60000000000002</ele><time>2026-04-28T13:54:14.974Z</time></trkpt><trkpt lat="40.9888606" lon="16.9455554"><ele>162.39999999999998</ele><time>2026-04-28T13:54:16.974Z</time></trkpt><trkpt lat="40.9889354" lon="16.9456611"><ele>162.2</ele><time>2026-04-28T13:54:18.973Z</time></trkpt><trkpt lat="40.989012" lon="16.9457711"><ele>162.0</ele><time>2026-04-28T13:54:20.973Z</time></trkpt><trkpt lat="40.9890891" lon="16.9458808"><ele>161.75</ele><time>2026-04-28T13:54:22.974Z</time></trkpt><trkpt lat="40.9891668" lon="16.9459924"><ele>161.5</ele><time>2026-04-28T13:54:24.973Z</time></trkpt><trkpt lat="40.9892469" lon="16.946102"><ele>161.25</ele><time>2026-04-28T13:54:26.973Z</time></trkpt><trkpt lat="40.9893256" lon="16.946215"><ele>161.0</ele><time>2026-04-28T13:54:28.973Z</time></trkpt><trkpt lat="40.9894091" lon="16.9463346"><ele>161.0</ele><time>2026-04-28T13:54:30.973Z</time></trkpt><trkpt lat="40.989454" lon="16.9463938"><ele>161.0</ele><time>2026-04-28T13:54:31.973Z</time></trkpt><trkpt lat="40.9894984" lon="16.946455"><ele>161.0</ele><time>2026-04-28T13:54:32.974Z</time></trkpt><trkpt lat="40.9895857" lon="16.9465733"><ele>161.0</ele><time>2026-04-28T13:54:34.973Z</time></trkpt><trkpt lat="40.9896315" lon="16.9466367"><ele>161.0</ele><time>2026-04-28T13:54:35.973Z</time></trkpt><trkpt lat="40.9896781" lon="16.9466997"><ele>161.0</ele><time>2026-04-28T13:54:36.973Z</time></trkpt><trkpt lat="40.9897638" lon="16.946822"><ele>160.8</ele><time>2026-04-28T13:54:38.973Z</time></trkpt><trkpt lat="40.9898463" lon="16.94694"><ele>160.60000000000002</ele><time>2026-04-28T13:54:40.973Z</time></trkpt><trkpt lat="40.9898908" lon="16.9469993"><ele>160.4</ele><time>2026-04-28T13:54:41.973Z</time></trkpt><trkpt lat="40.9899712" lon="16.9471178"><ele>160.2</ele><time>2026-04-28T13:54:43.973Z</time></trkpt><trkpt lat="40.9900531" lon="16.9472404"><ele>160.0</ele><time>2026-04-28T13:54:45.974Z</time></trkpt><trkpt lat="40.9901351" lon="16.9473639"><ele>159.75</ele><time>2026-04-28T13:54:47.973Z</time></trkpt><trkpt lat="40.9902203" lon="16.9474775"><ele>159.5</ele><time>2026-04-28T13:54:49.974Z</time></trkpt><trkpt lat="40.9903067" lon="16.94759"><ele>159.25</ele><time>2026-04-28T13:54:51.973Z</time></trkpt><trkpt lat="40.9903913" lon="16.9477039"><ele>159.0</ele><time>2026-04-28T13:54:53.973Z</time></trkpt><trkpt lat="40.9904751" lon="16.9478247"><ele>159.0</ele><time>2026-04-28T13:54:55.974Z</time></trkpt><trkpt lat="40.9905584" lon="16.9479424"><ele>159.0</ele><time>2026-04-28T13:54:57.973Z</time></trkpt><trkpt lat="40.9906414" lon="16.9480599"><ele>159.0</ele><time>2026-04-28T13:54:59.974Z</time></trkpt><trkpt lat="40.9907316" lon="16.9481738"><ele>159.0</ele><time>2026-04-28T13:55:01.973Z</time></trkpt><trkpt lat="40.9908242" lon="16.9482842"><ele>159.0</ele><time>2026-04-28T13:55:03.973Z</time></trkpt><trkpt lat="40.9909163" lon="16.9483883"><ele>159.0</ele><time>2026-04-28T13:55:05.973Z</time></trkpt><trkpt lat="40.9910165" lon="16.9484772"><ele>159.0</ele><time>2026-04-28T13:55:07.973Z</time></trkpt><trkpt lat="40.9911214" lon="16.9485556"><ele>159.0</ele><time>2026-04-28T13:55:09.973Z</time></trkpt><trkpt lat="40.9912245" lon="16.9486358"><ele>159.0</ele><time>2026-04-28T13:55:11.973Z</time></trkpt><trkpt lat="40.9913282" lon="16.9487129"><ele>159.0</ele><time>2026-04-28T13:55:13.973Z</time></trkpt><trkpt lat="40.9914284" lon="16.9487946"><ele>159.0</ele><time>2026-04-28T13:55:15.973Z</time></trkpt><trkpt lat="40.9915309" lon="16.9488774"><ele>159.0</ele><time>2026-04-28T13:55:17.974Z</time></trkpt><trkpt lat="40.9916334" lon="16.9489569"><ele>158.8</ele><time>2026-04-28T13:55:19.973Z</time></trkpt><trkpt lat="40.9917352" lon="16.9490366"><ele>158.60000000000002</ele><time>2026-04-28T13:55:21.974Z</time></trkpt><trkpt lat="40.9918349" lon="16.9491162"><ele>158.4</ele><time>2026-04-28T13:55:23.974Z</time></trkpt><trkpt lat="40.9919241" lon="16.9491894"><ele>158.20000000000002</ele><time>2026-04-28T13:55:25.974Z</time></trkpt><trkpt lat="40.9919641" lon="16.9492986"><ele>158.0</ele><time>2026-04-28T13:55:27.973Z</time></trkpt><trkpt lat="40.991904" lon="16.9493881"><ele>158.0</ele><time>2026-04-28T13:55:29.973Z</time></trkpt><trkpt lat="40.9918653" lon="16.949505"><ele>158.0</ele><time>2026-04-28T13:55:31.974Z</time></trkpt><trkpt lat="40.9918372" lon="16.9496343"><ele>158.0</ele><time>2026-04-28T13:55:33.973Z</time></trkpt><trkpt lat="40.9918123" lon="16.9497729"><ele>158.0</ele><time>2026-04-28T13:55:35.973Z</time></trkpt><trkpt lat="40.9917823" lon="16.9499129"><ele>158.0</ele><time>2026-04-28T13:55:37.974Z</time></trkpt><trkpt lat="40.991742" lon="16.9500532"><ele>158.5</ele><time>2026-04-28T13:55:39.974Z</time></trkpt><trkpt lat="40.9916962" lon="16.9501897"><ele>159.0</ele><time>2026-04-28T13:55:41.974Z</time></trkpt><trkpt lat="40.9916679" lon="16.9503343"><ele>159.5</ele><time>2026-04-28T13:55:43.973Z</time></trkpt><trkpt lat="40.9916294" lon="16.9504766"><ele>160.0</ele><time>2026-04-28T13:55:45.973Z</time></trkpt><trkpt lat="40.9915899" lon="16.9506198"><ele>160.0</ele><time>2026-04-28T13:55:47.973Z</time></trkpt><trkpt lat="40.9915539" lon="16.9507657"><ele>160.0</ele><time>2026-04-28T13:55:49.974Z</time></trkpt><trkpt lat="40.9915133" lon="16.9509147"><ele>160.0</ele><time>2026-04-28T13:55:51.973Z</time></trkpt><trkpt lat="40.9914648" lon="16.9510599"><ele>160.0</ele><time>2026-04-28T13:55:53.974Z</time></trkpt><trkpt lat="40.9914329" lon="16.9512101"><ele>159.25</ele><time>2026-04-28T13:55:55.974Z</time></trkpt><trkpt lat="40.9914006" lon="16.9513575"><ele>158.5</ele><time>2026-04-28T13:55:57.973Z</time></trkpt><trkpt lat="40.9913627" lon="16.9515014"><ele>157.75</ele><time>2026-04-28T13:55:59.974Z</time></trkpt><trkpt lat="40.9913259" lon="16.9516463"><ele>157.0</ele><time>2026-04-28T13:56:01.974Z</time></trkpt><trkpt lat="40.9912904" lon="16.9517942"><ele>157.0</ele><time>2026-04-28T13:56:03.973Z</time></trkpt><trkpt lat="40.9912569" lon="16.9519371"><ele>157.0</ele><time>2026-04-28T13:56:05.973Z</time></trkpt><trkpt lat="40.9912189" lon="16.9520799"><ele>157.0</ele><time>2026-04-28T13:56:07.973Z</time></trkpt><trkpt lat="40.9911832" lon="16.9522262"><ele>157.0</ele><time>2026-04-28T13:56:09.973Z</time></trkpt><trkpt lat="40.9911471" lon="16.9523673"><ele>157.0</ele><time>2026-04-28T13:56:11.973Z</time></trkpt><trkpt lat="40.9911086" lon="16.952508"><ele>157.0</ele><time>2026-04-28T13:56:13.973Z</time></trkpt><trkpt lat="40.9910694" lon="16.9526492"><ele>157.0</ele><time>2026-04-28T13:56:15.973Z</time></trkpt><trkpt lat="40.9910286" lon="16.952788"><ele>157.0</ele><time>2026-04-28T13:56:17.974Z</time></trkpt><trkpt lat="40.9909882" lon="16.9529252"><ele>157.4</ele><time>2026-04-28T13:56:19.973Z</time></trkpt><trkpt lat="40.990954" lon="16.9530647"><ele>157.79999999999998</ele><time>2026-04-28T13:56:21.974Z</time></trkpt><trkpt lat="40.9909206" lon="16.9532033"><ele>158.2</ele><time>2026-04-28T13:56:23.973Z</time></trkpt><trkpt lat="40.9908855" lon="16.953346"><ele>158.6</ele><time>2026-04-28T13:56:25.973Z</time></trkpt><trkpt lat="40.9908473" lon="16.9534893"><ele>159.0</ele><time>2026-04-28T13:56:27.974Z</time></trkpt><trkpt lat="40.9908113" lon="16.9536307"><ele>159.4</ele><time>2026-04-28T13:56:29.974Z</time></trkpt><trkpt lat="40.9907777" lon="16.9537721"><ele>159.8</ele><time>2026-04-28T13:56:31.973Z</time></trkpt><trkpt lat="40.9907401" lon="16.9539092"><ele>160.20000000000002</ele><time>2026-04-28T13:56:33.973Z</time></trkpt><trkpt lat="40.9907029" lon="16.9540343"><ele>160.60000000000002</ele><time>2026-04-28T13:56:35.972Z</time></trkpt><trkpt lat="40.9906813" lon="16.9541234"><ele>161.0</ele><time>2026-04-28T13:56:37.973Z</time></trkpt><trkpt lat="40.9907077" lon="16.9542051"><ele>161.0</ele><time>2026-04-28T13:56:40.973Z</time></trkpt><trkpt lat="40.990718" lon="16.9542923"><ele>161.0</ele><time>2026-04-28T13:56:46.973Z</time></trkpt><trkpt lat="40.990792" lon="16.9542623"><ele>161.0</ele><time>2026-04-28T13:56:49.973Z</time></trkpt><trkpt lat="40.9908696" lon="16.9542708"><ele>161.0</ele><time>2026-04-28T13:56:51.973Z</time></trkpt><trkpt lat="40.9909618" lon="16.9542941"><ele>161.0</ele><time>2026-04-28T13:56:53.973Z</time></trkpt><trkpt lat="40.9910312" lon="16.9543608"><ele>161.0</ele><time>2026-04-28T13:56:55.974Z</time></trkpt><trkpt lat="40.9910178" lon="16.9544639"><ele>160.8</ele><time>2026-04-28T13:56:57.974Z</time></trkpt><trkpt lat="40.9909816" lon="16.9545727"><ele>160.60000000000002</ele><time>2026-04-28T13:56:59.972Z</time></trkpt><trkpt lat="40.9909523" lon="16.9546936"><ele>160.4</ele><time>2026-04-28T13:57:01.972Z</time></trkpt><trkpt lat="40.9909288" lon="16.9548209"><ele>160.2</ele><time>2026-04-28T13:57:03.973Z</time></trkpt><trkpt lat="40.9908981" lon="16.9549555"><ele>160.0</ele><time>2026-04-28T13:57:05.972Z</time></trkpt><trkpt lat="40.9908663" lon="16.9550833"><ele>160.2</ele><time>2026-04-28T13:57:07.972Z</time></trkpt><trkpt lat="40.9908314" lon="16.9552104"><ele>160.4</ele><time>2026-04-28T13:57:09.973Z</time></trkpt><trkpt lat="40.9907923" lon="16.9553339"><ele>160.60000000000002</ele><time>2026-04-28T13:57:11.973Z</time></trkpt><trkpt lat="40.9907726" lon="16.9554597"><ele>160.8</ele><time>2026-04-28T13:57:13.972Z</time></trkpt><trkpt lat="40.9907597" lon="16.9555812"><ele>161.0</ele><time>2026-04-28T13:57:15.972Z</time></trkpt><trkpt lat="40.9907409" lon="16.9557018"><ele>161.0</ele><time>2026-04-28T13:57:17.972Z</time></trkpt><trkpt lat="40.9906953" lon="16.9558148"><ele>161.0</ele><time>2026-04-28T13:57:19.973Z</time></trkpt><trkpt lat="40.9906517" lon="16.955931"><ele>161.0</ele><time>2026-04-28T13:57:21.972Z</time></trkpt><trkpt lat="40.9906115" lon="16.9560548"><ele>161.0</ele><time>2026-04-28T13:57:23.972Z</time></trkpt><trkpt lat="40.9905781" lon="16.9561798"><ele>161.0</ele><time>2026-04-28T13:57:25.972Z</time></trkpt><trkpt lat="40.990546" lon="16.956307"><ele>161.20000000000002</ele><time>2026-04-28T13:57:27.972Z</time></trkpt><trkpt lat="40.9905143" lon="16.9564268"><ele>161.4</ele><time>2026-04-28T13:57:29.972Z</time></trkpt><trkpt lat="40.9904844" lon="16.9565433"><ele>161.6</ele><time>2026-04-28T13:57:31.971Z</time></trkpt><trkpt lat="40.9904548" lon="16.95666"><ele>161.8</ele><time>2026-04-28T13:57:33.973Z</time></trkpt><trkpt lat="40.9904228" lon="16.9567778"><ele>162.0</ele><time>2026-04-28T13:57:35.972Z</time></trkpt><trkpt lat="40.9903964" lon="16.9568979"><ele>162.0</ele><time>2026-04-28T13:57:37.972Z</time></trkpt><trkpt lat="40.990364" lon="16.9570179"><ele>162.0</ele><time>2026-04-28T13:57:39.972Z</time></trkpt><trkpt lat="40.9903293" lon="16.9571398"><ele>162.0</ele><time>2026-04-28T13:57:41.972Z</time></trkpt><trkpt lat="40.9902992" lon="16.9572656"><ele>162.0</ele><time>2026-04-28T13:57:43.973Z</time></trkpt><trkpt lat="40.9902671" lon="16.9573897"><ele>162.0</ele><time>2026-04-28T13:57:45.972Z</time></trkpt><trkpt lat="40.9902361" lon="16.9575188"><ele>161.8</ele><time>2026-04-28T13:57:47.972Z</time></trkpt><trkpt lat="40.9902036" lon="16.9576501"><ele>161.6</ele><time>2026-04-28T13:57:49.972Z</time></trkpt><trkpt lat="40.9901883" lon="16.957786"><ele>161.4</ele><time>2026-04-28T13:57:51.973Z</time></trkpt><trkpt lat="40.9901997" lon="16.9579222"><ele>161.20000000000002</ele><time>2026-04-28T13:57:53.972Z</time></trkpt><trkpt lat="40.9902207" lon="16.9580543"><ele>161.0</ele><time>2026-04-28T13:57:55.972Z</time></trkpt><trkpt lat="40.990242" lon="16.958186"><ele>161.0</ele><time>2026-04-28T13:57:57.972Z</time></trkpt><trkpt lat="40.990261" lon="16.958318"><ele>161.0</ele><time>2026-04-28T13:57:59.972Z</time></trkpt><trkpt lat="40.9902794" lon="16.9584475"><ele>161.0</ele><time>2026-04-28T13:58:01.972Z</time></trkpt><trkpt lat="40.9903032" lon="16.9585755"><ele>161.0</ele><time>2026-04-28T13:58:03.973Z</time></trkpt><trkpt lat="40.990324" lon="16.9587061"><ele>161.0</ele><time>2026-04-28T13:58:05.972Z</time></trkpt><trkpt lat="40.9903406" lon="16.958839"><ele>161.20000000000002</ele><time>2026-04-28T13:58:07.972Z</time></trkpt><trkpt lat="40.9903543" lon="16.9589692"><ele>161.4</ele><time>2026-04-28T13:58:09.972Z</time></trkpt><trkpt lat="40.9903717" lon="16.9590934"><ele>161.6</ele><time>2026-04-28T13:58:11.972Z</time></trkpt><trkpt lat="40.9903902" lon="16.9592209"><ele>161.8</ele><time>2026-04-28T13:58:13.972Z</time></trkpt><trkpt lat="40.9904055" lon="16.9593537"><ele>162.0</ele><time>2026-04-28T13:58:15.973Z</time></trkpt><trkpt lat="40.9904205" lon="16.9594844"><ele>162.66666666666666</ele><time>2026-04-28T13:58:17.973Z</time></trkpt><trkpt lat="40.9904392" lon="16.9596129"><ele>163.33333333333334</ele><time>2026-04-28T13:58:19.974Z</time></trkpt><trkpt lat="40.9904595" lon="16.9597411"><ele>164.0</ele><time>2026-04-28T13:58:21.973Z</time></trkpt><trkpt lat="40.9904742" lon="16.9598655"><ele>164.66666666666669</ele><time>2026-04-28T13:58:23.973Z</time></trkpt><trkpt lat="40.9904909" lon="16.9599591"><ele>165.33333333333334</ele><time>2026-04-28T13:58:25.972Z</time></trkpt><trkpt lat="40.9905242" lon="16.9600318"><ele>166.0</ele><time>2026-04-28T13:58:27.972Z</time></trkpt><trkpt lat="40.990493" lon="16.9601203"><ele>166.0</ele><time>2026-04-28T13:58:31.972Z</time></trkpt><trkpt lat="40.9904073" lon="16.9601827"><ele>166.0</ele><time>2026-04-28T13:58:34.972Z</time></trkpt><trkpt lat="40.9903261" lon="16.9601889"><ele>166.0</ele><time>2026-04-28T13:58:36.972Z</time></trkpt><trkpt lat="40.9902443" lon="16.9601975"><ele>166.0</ele><time>2026-04-28T13:58:38.972Z</time></trkpt><trkpt lat="40.9901638" lon="16.9602007"><ele>166.0</ele><time>2026-04-28T13:58:40.973Z</time></trkpt><trkpt lat="40.990085" lon="16.960205"><ele>166.0</ele><time>2026-04-28T13:58:42.972Z</time></trkpt><trkpt lat="40.9900082" lon="16.9602083"><ele>166.0</ele><time>2026-04-28T13:58:44.972Z</time></trkpt><trkpt lat="40.9899323" lon="16.9602078"><ele>166.0</ele><time>2026-04-28T13:58:46.972Z</time></trkpt><trkpt lat="40.9898521" lon="16.960217"><ele>166.0</ele><time>2026-04-28T13:58:48.973Z</time></trkpt><trkpt lat="40.9897711" lon="16.9602272"><ele>166.0</ele><time>2026-04-28T13:58:50.973Z</time></trkpt><trkpt lat="40.9896879" lon="16.9602404"><ele>166.0</ele><time>2026-04-28T13:58:52.973Z</time></trkpt><trkpt lat="40.9896035" lon="16.96025"><ele>166.0</ele><time>2026-04-28T13:58:54.973Z</time></trkpt><trkpt lat="40.9895145" lon="16.9602539"><ele>166.0</ele><time>2026-04-28T13:58:56.972Z</time></trkpt><trkpt lat="40.9894204" lon="16.960264"><ele>166.0</ele><time>2026-04-28T13:58:58.972Z</time></trkpt><trkpt lat="40.9893248" lon="16.9602823"><ele>166.0</ele><time>2026-04-28T13:59:00.972Z</time></trkpt><trkpt lat="40.9892304" lon="16.9603068"><ele>166.0</ele><time>2026-04-28T13:59:02.972Z</time></trkpt><trkpt lat="40.9891338" lon="16.9603342"><ele>166.0</ele><time>2026-04-28T13:59:04.972Z</time></trkpt><trkpt lat="40.9890374" lon="16.960363"><ele>166.20000000000002</ele><time>2026-04-28T13:59:06.973Z</time></trkpt><trkpt lat="40.9889407" lon="16.9603946"><ele>166.4</ele><time>2026-04-28T13:59:08.972Z</time></trkpt><trkpt lat="40.9888477" lon="16.960433"><ele>166.6</ele><time>2026-04-28T13:59:10.973Z</time></trkpt><trkpt lat="40.9887476" lon="16.9604456"><ele>166.8</ele><time>2026-04-28T13:59:12.972Z</time></trkpt><trkpt lat="40.9886454" lon="16.9604584"><ele>167.0</ele><time>2026-04-28T13:59:14.972Z</time></trkpt><trkpt lat="40.9885394" lon="16.9604746"><ele>167.0</ele><time>2026-04-28T13:59:16.972Z</time></trkpt><trkpt lat="40.9884329" lon="16.9605036"><ele>167.0</ele><time>2026-04-28T13:59:18.972Z</time></trkpt><trkpt lat="40.9883287" lon="16.9605298"><ele>167.0</ele><time>2026-04-28T13:59:20.972Z</time></trkpt><trkpt lat="40.9882249" lon="16.9605539"><ele>167.0</ele><time>2026-04-28T13:59:22.973Z</time></trkpt><trkpt lat="40.9881224" lon="16.9605801"><ele>167.0</ele><time>2026-04-28T13:59:24.973Z</time></trkpt><trkpt lat="40.988022" lon="16.9606046"><ele>167.0</ele><time>2026-04-28T13:59:26.972Z</time></trkpt><trkpt lat="40.9879315" lon="16.9606415"><ele>167.0</ele><time>2026-04-28T13:59:28.973Z</time></trkpt><trkpt lat="40.9878903" lon="16.9607446"><ele>167.0</ele><time>2026-04-28T13:59:30.972Z</time></trkpt><trkpt lat="40.987893" lon="16.9608623"><ele>167.0</ele><time>2026-04-28T13:59:32.972Z</time></trkpt><trkpt lat="40.9878995" lon="16.9609799"><ele>167.0</ele><time>2026-04-28T13:59:34.971Z</time></trkpt><trkpt lat="40.9879081" lon="16.9610985"><ele>167.0</ele><time>2026-04-28T13:59:36.972Z</time></trkpt><trkpt lat="40.9879152" lon="16.961213"><ele>167.0</ele><time>2026-04-28T13:59:38.972Z</time></trkpt><trkpt lat="40.9879067" lon="16.9613319"><ele>167.0</ele><time>2026-04-28T13:59:40.973Z</time></trkpt><trkpt lat="40.9878823" lon="16.9614557"><ele>167.0</ele><time>2026-04-28T13:59:42.973Z</time></trkpt><trkpt lat="40.9878735" lon="16.9615824"><ele>167.0</ele><time>2026-04-28T13:59:44.972Z</time></trkpt><trkpt lat="40.9878694" lon="16.9617154"><ele>166.6</ele><time>2026-04-28T13:59:46.973Z</time></trkpt><trkpt lat="40.9878683" lon="16.9618578"><ele>166.2</ele><time>2026-04-28T13:59:48.972Z</time></trkpt><trkpt lat="40.9878684" lon="16.9620068"><ele>165.8</ele><time>2026-04-28T13:59:50.973Z</time></trkpt><trkpt lat="40.9878695" lon="16.9621583"><ele>165.4</ele><time>2026-04-28T13:59:52.973Z</time></trkpt><trkpt lat="40.9878678" lon="16.9623097"><ele>165.0</ele><time>2026-04-28T13:59:54.972Z</time></trkpt><trkpt lat="40.9878672" lon="16.9624615"><ele>164.75</ele><time>2026-04-28T13:59:56.972Z</time></trkpt><trkpt lat="40.9878671" lon="16.9626185"><ele>164.5</ele><time>2026-04-28T13:59:58.973Z</time></trkpt><trkpt lat="40.9878601" lon="16.9627793"><ele>164.25</ele><time>2026-04-28T14:00:00.973Z</time></trkpt><trkpt lat="40.9878538" lon="16.9629451"><ele>164.0</ele><time>2026-04-28T14:00:02.972Z</time></trkpt><trkpt lat="40.987853" lon="16.9631033"><ele>164.0</ele><time>2026-04-28T14:00:04.972Z</time></trkpt><trkpt lat="40.9878517" lon="16.9632635"><ele>164.0</ele><time>2026-04-28T14:00:06.972Z</time></trkpt><trkpt lat="40.987847" lon="16.9634212"><ele>164.0</ele><time>2026-04-28T14:00:08.972Z</time></trkpt><trkpt lat="40.9878447" lon="16.9635798"><ele>164.0</ele><time>2026-04-28T14:00:10.972Z</time></trkpt><trkpt lat="40.9878441" lon="16.963737"><ele>163.79999999999998</ele><time>2026-04-28T14:00:12.972Z</time></trkpt><trkpt lat="40.9878393" lon="16.9638906"><ele>163.6</ele><time>2026-04-28T14:00:14.972Z</time></trkpt><trkpt lat="40.9878452" lon="16.9640351"><ele>163.4</ele><time>2026-04-28T14:00:16.972Z</time></trkpt><trkpt lat="40.9877977" lon="16.9641225"><ele>163.2</ele><time>2026-04-28T14:00:18.973Z</time></trkpt><trkpt lat="40.9877155" lon="16.9641264"><ele>163.0</ele><time>2026-04-28T14:00:20.972Z</time></trkpt><trkpt lat="40.9876231" lon="16.9641275"><ele>163.0</ele><time>2026-04-28T14:00:22.972Z</time></trkpt><trkpt lat="40.9875251" lon="16.9641312"><ele>163.0</ele><time>2026-04-28T14:00:24.972Z</time></trkpt><trkpt lat="40.9874246" lon="16.9641342"><ele>163.0</ele><time>2026-04-28T14:00:26.972Z</time></trkpt><trkpt lat="40.9873252" lon="16.964136"><ele>163.0</ele><time>2026-04-28T14:00:28.972Z</time></trkpt><trkpt lat="40.9872264" lon="16.9641365"><ele>163.0</ele><time>2026-04-28T14:00:30.972Z</time></trkpt><trkpt lat="40.987126" lon="16.9641342"><ele>163.4</ele><time>2026-04-28T14:00:32.972Z</time></trkpt><trkpt lat="40.9870303" lon="16.9641374"><ele>163.8</ele><time>2026-04-28T14:00:34.973Z</time></trkpt><trkpt lat="40.9869325" lon="16.9641287"><ele>164.2</ele><time>2026-04-28T14:00:36.972Z</time></trkpt><trkpt lat="40.9868373" lon="16.9641246"><ele>164.6</ele><time>2026-04-28T14:00:38.972Z</time></trkpt><trkpt lat="40.9867435" lon="16.9641225"><ele>165.0</ele><time>2026-04-28T14:00:40.972Z</time></trkpt><trkpt lat="40.9866514" lon="16.96412"><ele>165.5</ele><time>2026-04-28T14:00:42.972Z</time></trkpt><trkpt lat="40.9865634" lon="16.9641141"><ele>166.0</ele><time>2026-04-28T14:00:44.972Z</time></trkpt><trkpt lat="40.9864765" lon="16.9641002"><ele>166.5</ele><time>2026-04-28T14:00:46.972Z</time></trkpt><trkpt lat="40.986387" lon="16.9641"><ele>167.0</ele><time>2026-04-28T14:00:48.972Z</time></trkpt><trkpt lat="40.9862981" lon="16.9641006"><ele>167.5</ele><time>2026-04-28T14:00:50.972Z</time></trkpt><trkpt lat="40.9862065" lon="16.9641003"><ele>168.0</ele><time>2026-04-28T14:00:52.972Z</time></trkpt><trkpt lat="40.986112" lon="16.9641031"><ele>168.0</ele><time>2026-04-28T14:00:54.972Z</time></trkpt><trkpt lat="40.9860185" lon="16.9641034"><ele>168.0</ele><time>2026-04-28T14:00:56.972Z</time></trkpt><trkpt lat="40.9859586" lon="16.9641331"><ele>168.0</ele><time>2026-04-28T14:00:59.972Z</time></trkpt><trkpt lat="40.9859847" lon="16.9642434"><ele>168.0</ele><time>2026-04-28T14:01:02.973Z</time></trkpt><trkpt lat="40.9859837" lon="16.9643585"><ele>168.0</ele><time>2026-04-28T14:01:04.972Z</time></trkpt><trkpt lat="40.98598" lon="16.9644829"><ele>168.0</ele><time>2026-04-28T14:01:06.972Z</time></trkpt><trkpt lat="40.9859803" lon="16.9646092"><ele>167.60000000000002</ele><time>2026-04-28T14:01:08.973Z</time></trkpt><trkpt lat="40.9859764" lon="16.9647355"><ele>167.20000000000002</ele><time>2026-04-28T14:01:10.972Z</time></trkpt><trkpt lat="40.9859761" lon="16.9648664"><ele>166.8</ele><time>2026-04-28T14:01:12.973Z</time></trkpt><trkpt lat="40.98598" lon="16.9650028"><ele>166.4</ele><time>2026-04-28T14:01:14.972Z</time></trkpt><trkpt lat="40.9859776" lon="16.9651369"><ele>166.0</ele><time>2026-04-28T14:01:16.972Z</time></trkpt><trkpt lat="40.985975" lon="16.9652745"><ele>165.8</ele><time>2026-04-28T14:01:18.972Z</time></trkpt><trkpt lat="40.9859741" lon="16.9654085"><ele>165.60000000000002</ele><time>2026-04-28T14:01:20.972Z</time></trkpt><trkpt lat="40.9859765" lon="16.9655446"><ele>165.4</ele><time>2026-04-28T14:01:22.973Z</time></trkpt><trkpt lat="40.9859781" lon="16.9656795"><ele>165.2</ele><time>2026-04-28T14:01:24.972Z</time></trkpt><trkpt lat="40.9859764" lon="16.9658157"><ele>165.0</ele><time>2026-04-28T14:01:26.972Z</time></trkpt><trkpt lat="40.9859742" lon="16.965952"><ele>165.0</ele><time>2026-04-28T14:01:28.972Z</time></trkpt><trkpt lat="40.9859746" lon="16.9660903"><ele>165.0</ele><time>2026-04-28T14:01:30.972Z</time></trkpt><trkpt lat="40.9859734" lon="16.9662268"><ele>165.0</ele><time>2026-04-28T14:01:32.972Z</time></trkpt><trkpt lat="40.9859765" lon="16.9663596"><ele>165.0</ele><time>2026-04-28T14:01:34.973Z</time></trkpt><trkpt lat="40.9859751" lon="16.9664917"><ele>165.0</ele><time>2026-04-28T14:01:36.972Z</time></trkpt><trkpt lat="40.9859724" lon="16.966605"><ele>165.00000000000003</ele><time>2026-04-28T14:01:38.972Z</time></trkpt><trkpt lat="40.9859117" lon="16.966667"><ele>165.0</ele><time>2026-04-28T14:01:42.973Z</time></trkpt><trkpt lat="40.9858268" lon="16.9666638"><ele>165.0</ele><time>2026-04-28T14:01:46.972Z</time></trkpt><trkpt lat="40.9857594" lon="16.966662"><ele>165.0</ele><time>2026-04-28T14:01:48.972Z</time></trkpt><trkpt lat="40.9856965" lon="16.9666561"><ele>165.0</ele><time>2026-04-28T14:01:50.972Z</time></trkpt><trkpt lat="40.9856334" lon="16.9666682"><ele>165.00000000000003</ele><time>2026-04-28T14:01:53.973Z</time></trkpt><trkpt lat="40.9855963" lon="16.9667615"><ele>165.0</ele><time>2026-04-28T14:01:57.972Z</time></trkpt><trkpt lat="40.9856004" lon="16.9668568"><ele>165.16666666666666</ele><time>2026-04-28T14:01:59.972Z</time></trkpt><trkpt lat="40.9855995" lon="16.9669635"><ele>165.33333333333334</ele><time>2026-04-28T14:02:01.972Z</time></trkpt><trkpt lat="40.9856004" lon="16.9670714"><ele>165.5</ele><time>2026-04-28T14:02:03.973Z</time></trkpt><trkpt lat="40.9856012" lon="16.9671716"><ele>165.66666666666669</ele><time>2026-04-28T14:02:05.973Z</time></trkpt><trkpt lat="40.9856334" lon="16.9672515"><ele>165.83333333333334</ele><time>2026-04-28T14:02:07.972Z</time></trkpt><trkpt lat="40.9857158" lon="16.967281"><ele>166.0</ele><time>2026-04-28T14:02:09.972Z</time></trkpt><trkpt lat="40.9857999" lon="16.967327"><ele>166.0</ele><time>2026-04-28T14:02:11.972Z</time></trkpt><trkpt lat="40.9858291" lon="16.9674348"><ele>166.0</ele><time>2026-04-28T14:02:13.973Z</time></trkpt><trkpt lat="40.9858273" lon="16.9675554"><ele>166.0</ele><time>2026-04-28T14:02:15.972Z</time></trkpt><trkpt lat="40.9858248" lon="16.9676944"><ele>166.0</ele><time>2026-04-28T14:02:17.972Z</time></trkpt><trkpt lat="40.9858284" lon="16.967837"><ele>166.0</ele><time>2026-04-28T14:02:19.972Z</time></trkpt><trkpt lat="40.9858307" lon="16.9679847"><ele>165.8</ele><time>2026-04-28T14:02:21.972Z</time></trkpt><trkpt lat="40.9858342" lon="16.968132"><ele>165.60000000000002</ele><time>2026-04-28T14:02:23.972Z</time></trkpt><trkpt lat="40.985837" lon="16.9682768"><ele>165.4</ele><time>2026-04-28T14:02:25.973Z</time></trkpt><trkpt lat="40.9858377" lon="16.9684157"><ele>165.2</ele><time>2026-04-28T14:02:27.972Z</time></trkpt><trkpt lat="40.9858523" lon="16.9685618"><ele>165.0</ele><time>2026-04-28T14:02:29.973Z</time></trkpt><trkpt lat="40.9858562" lon="16.9687155"><ele>164.25</ele><time>2026-04-28T14:02:31.972Z</time></trkpt><trkpt lat="40.9858593" lon="16.9688734"><ele>163.5</ele><time>2026-04-28T14:02:33.972Z</time></trkpt><trkpt lat="40.985862" lon="16.9690345"><ele>162.75</ele><time>2026-04-28T14:02:35.972Z</time></trkpt><trkpt lat="40.9858723" lon="16.9691924"><ele>162.0</ele><time>2026-04-28T14:02:37.972Z</time></trkpt><trkpt lat="40.9858761" lon="16.9693517"><ele>161.75</ele><time>2026-04-28T14:02:39.972Z</time></trkpt><trkpt lat="40.985882" lon="16.9695138"><ele>161.5</ele><time>2026-04-28T14:02:41.972Z</time></trkpt><trkpt lat="40.9858907" lon="16.9696769"><ele>161.25</ele><time>2026-04-28T14:02:43.972Z</time></trkpt><trkpt lat="40.9858956" lon="16.9698415"><ele>161.0</ele><time>2026-04-28T14:02:45.972Z</time></trkpt><trkpt lat="40.9858969" lon="16.969999"><ele>161.0</ele><time>2026-04-28T14:02:47.972Z</time></trkpt><trkpt lat="40.985901" lon="16.9701531"><ele>161.0</ele><time>2026-04-28T14:02:49.973Z</time></trkpt><trkpt lat="40.9859054" lon="16.9702894"><ele>161.0</ele><time>2026-04-28T14:02:51.972Z</time></trkpt><trkpt lat="40.9859033" lon="16.9703856"><ele>161.0</ele><time>2026-04-28T14:02:53.972Z</time></trkpt><trkpt lat="40.9859081" lon="16.9704756"><ele>161.0</ele><time>2026-04-28T14:03:12.973Z</time></trkpt><trkpt lat="40.9858379" lon="16.9705117"><ele>161.0</ele><time>2026-04-28T14:03:16.972Z</time></trkpt><trkpt lat="40.9857816" lon="16.970459"><ele>161.16666666666666</ele><time>2026-04-28T14:03:18.973Z</time></trkpt><trkpt lat="40.985711" lon="16.9704329"><ele>161.33333333333331</ele><time>2026-04-28T14:03:20.972Z</time></trkpt><trkpt lat="40.9856325" lon="16.970422"><ele>161.5</ele><time>2026-04-28T14:03:22.973Z</time></trkpt><trkpt lat="40.9855518" lon="16.9704077"><ele>161.66666666666666</ele><time>2026-04-28T14:03:24.972Z</time></trkpt><trkpt lat="40.985471" lon="16.970389"><ele>161.83333333333334</ele><time>2026-04-28T14:03:26.972Z</time></trkpt><trkpt lat="40.9853867" lon="16.9703765"><ele>162.0</ele><time>2026-04-28T14:03:28.973Z</time></trkpt><trkpt lat="40.9853033" lon="16.9703744"><ele>162.0</ele><time>2026-04-28T14:03:30.972Z</time></trkpt><trkpt lat="40.9852211" lon="16.9703701"><ele>162.0</ele><time>2026-04-28T14:03:32.973Z</time></trkpt><trkpt lat="40.9851356" lon="16.9703559"><ele>162.0</ele><time>2026-04-28T14:03:34.971Z</time></trkpt><trkpt lat="40.9850496" lon="16.9703533"><ele>162.0</ele><time>2026-04-28T14:03:36.972Z</time></trkpt><trkpt lat="40.9849611" lon="16.9703406"><ele>162.0</ele><time>2026-04-28T14:03:38.973Z</time></trkpt><trkpt lat="40.9848711" lon="16.9703205"><ele>162.0</ele><time>2026-04-28T14:03:40.973Z</time></trkpt><trkpt lat="40.9847807" lon="16.9703031"><ele>162.6</ele><time>2026-04-28T14:03:42.972Z</time></trkpt><trkpt lat="40.9846871" lon="16.9702828"><ele>163.2</ele><time>2026-04-28T14:03:44.973Z</time></trkpt><trkpt lat="40.9845954" lon="16.9702625"><ele>163.8</ele><time>2026-04-28T14:03:46.972Z</time></trkpt><trkpt lat="40.9845062" lon="16.9702393"><ele>164.4</ele><time>2026-04-28T14:03:48.972Z</time></trkpt><trkpt lat="40.9844206" lon="16.9702059"><ele>165.0</ele><time>2026-04-28T14:03:50.972Z</time></trkpt><trkpt lat="40.9843356" lon="16.9701705"><ele>165.0</ele><time>2026-04-28T14:03:52.973Z</time></trkpt><trkpt lat="40.98425" lon="16.9701342"><ele>165.0</ele><time>2026-04-28T14:03:54.972Z</time></trkpt><trkpt lat="40.9841678" lon="16.9701045"><ele>165.0</ele><time>2026-04-28T14:03:56.972Z</time></trkpt><trkpt lat="40.9840848" lon="16.9700604"><ele>165.0</ele><time>2026-04-28T14:03:58.972Z</time></trkpt><trkpt lat="40.9840045" lon="16.9700184"><ele>165.0</ele><time>2026-04-28T14:04:00.972Z</time></trkpt><trkpt lat="40.9839226" lon="16.969977"><ele>165.0</ele><time>2026-04-28T14:04:02.972Z</time></trkpt><trkpt lat="40.9838416" lon="16.9699343"><ele>165.5</ele><time>2026-04-28T14:04:04.972Z</time></trkpt><trkpt lat="40.9837621" lon="16.9698905"><ele>166.0</ele><time>2026-04-28T14:04:06.972Z</time></trkpt><trkpt lat="40.9836798" lon="16.9698621"><ele>166.5</ele><time>2026-04-28T14:04:08.972Z</time></trkpt><trkpt lat="40.9835983" lon="16.9698703"><ele>167.0</ele><time>2026-04-28T14:04:10.973Z</time></trkpt><trkpt lat="40.9835261" lon="16.9699127"><ele>167.5</ele><time>2026-04-28T14:04:12.972Z</time></trkpt><trkpt lat="40.9834537" lon="16.9699546"><ele>168.0</ele><time>2026-04-28T14:04:14.972Z</time></trkpt><trkpt lat="40.9833805" lon="16.9699932"><ele>168.83333333333334</ele><time>2026-04-28T14:04:16.973Z</time></trkpt><trkpt lat="40.9833072" lon="16.9700289"><ele>169.66666666666666</ele><time>2026-04-28T14:04:18.972Z</time></trkpt><trkpt lat="40.9832335" lon="16.9700686"><ele>170.5</ele><time>2026-04-28T14:04:20.972Z</time></trkpt><trkpt lat="40.9831592" lon="16.9701052"><ele>171.33333333333331</ele><time>2026-04-28T14:04:22.972Z</time></trkpt><trkpt lat="40.9830849" lon="16.9701479"><ele>172.16666666666666</ele><time>2026-04-28T14:04:24.972Z</time></trkpt><trkpt lat="40.9830051" lon="16.970187"><ele>173.0</ele><time>2026-04-28T14:04:26.972Z</time></trkpt><trkpt lat="40.9829288" lon="16.9702254"><ele>173.0</ele><time>2026-04-28T14:04:28.972Z</time></trkpt><trkpt lat="40.9828531" lon="16.9702673"><ele>173.0</ele><time>2026-04-28T14:04:30.972Z</time></trkpt><trkpt lat="40.9827746" lon="16.9703083"><ele>173.0</ele><time>2026-04-28T14:04:32.972Z</time></trkpt><trkpt lat="40.9826983" lon="16.9703524"><ele>173.0</ele><time>2026-04-28T14:04:34.973Z</time></trkpt><trkpt lat="40.9826209" lon="16.9704026"><ele>173.0</ele><time>2026-04-28T14:04:36.972Z</time></trkpt><trkpt lat="40.9825414" lon="16.9704535"><ele>173.0</ele><time>2026-04-28T14:04:38.972Z</time></trkpt><trkpt lat="40.9824588" lon="16.9704941"><ele>173.5</ele><time>2026-04-28T14:04:40.972Z</time></trkpt><trkpt lat="40.9823756" lon="16.9705353"><ele>174.0</ele><time>2026-04-28T14:04:42.972Z</time></trkpt><trkpt lat="40.9822945" lon="16.9705842"><ele>174.5</ele><time>2026-04-28T14:04:44.973Z</time></trkpt><trkpt lat="40.9822139" lon="16.9706323"><ele>175.0</ele><time>2026-04-28T14:04:46.972Z</time></trkpt><trkpt lat="40.9821327" lon="16.970678"><ele>175.5</ele><time>2026-04-28T14:04:48.972Z</time></trkpt><trkpt lat="40.9820535" lon="16.9707241"><ele>176.0</ele><time>2026-04-28T14:04:50.972Z</time></trkpt><trkpt lat="40.9819731" lon="16.9707669"><ele>176.0</ele><time>2026-04-28T14:04:52.972Z</time></trkpt><trkpt lat="40.9818938" lon="16.9708069"><ele>176.0</ele><time>2026-04-28T14:04:54.973Z</time></trkpt><trkpt lat="40.981813" lon="16.9708457"><ele>176.0</ele><time>2026-04-28T14:04:56.973Z</time></trkpt><trkpt lat="40.9817331" lon="16.9708904"><ele>176.0</ele><time>2026-04-28T14:04:58.972Z</time></trkpt><trkpt lat="40.9816525" lon="16.9709323"><ele>176.0</ele><time>2026-04-28T14:05:00.973Z</time></trkpt><trkpt lat="40.9815665" lon="16.9709732"><ele>176.0</ele><time>2026-04-28T14:05:02.973Z</time></trkpt><trkpt lat="40.9814909" lon="16.9710321"><ele>176.33333333333331</ele><time>2026-04-28T14:05:04.973Z</time></trkpt><trkpt lat="40.981409" lon="16.9710714"><ele>176.66666666666666</ele><time>2026-04-28T14:05:06.972Z</time></trkpt><trkpt lat="40.9813269" lon="16.9711095"><ele>177.0</ele><time>2026-04-28T14:05:08.973Z</time></trkpt><trkpt lat="40.9812457" lon="16.9711424"><ele>177.33333333333334</ele><time>2026-04-28T14:05:10.972Z</time></trkpt><trkpt lat="40.9811698" lon="16.9711819"><ele>177.66666666666669</ele><time>2026-04-28T14:05:12.973Z</time></trkpt><trkpt lat="40.9810979" lon="16.9712235"><ele>178.0</ele><time>2026-04-28T14:05:14.972Z</time></trkpt><trkpt lat="40.9810248" lon="16.971269"><ele>178.0</ele><time>2026-04-28T14:05:16.973Z</time></trkpt><trkpt lat="40.9809495" lon="16.971306"><ele>178.0</ele><time>2026-04-28T14:05:18.972Z</time></trkpt><trkpt lat="40.9808726" lon="16.9713462"><ele>178.0</ele><time>2026-04-28T14:05:20.972Z</time></trkpt><trkpt lat="40.9807974" lon="16.9713875"><ele>178.0</ele><time>2026-04-28T14:05:22.973Z</time></trkpt><trkpt lat="40.9807224" lon="16.9714292"><ele>178.0</ele><time>2026-04-28T14:05:24.972Z</time></trkpt><trkpt lat="40.9806468" lon="16.9714709"><ele>178.0</ele><time>2026-04-28T14:05:26.972Z</time></trkpt><trkpt lat="40.9805698" lon="16.9715112"><ele>178.66666666666669</ele><time>2026-04-28T14:05:28.972Z</time></trkpt><trkpt lat="40.9804921" lon="16.9715532"><ele>179.33333333333334</ele><time>2026-04-28T14:05:30.973Z</time></trkpt><trkpt lat="40.9804136" lon="16.9715922"><ele>180.0</ele><time>2026-04-28T14:05:32.973Z</time></trkpt><trkpt lat="40.9803355" lon="16.9716369"><ele>180.66666666666666</ele><time>2026-04-28T14:05:34.972Z</time></trkpt><trkpt lat="40.9802573" lon="16.9716849"><ele>181.33333333333331</ele><time>2026-04-28T14:05:36.972Z</time></trkpt><trkpt lat="40.9801768" lon="16.9717307"><ele>182.0</ele><time>2026-04-28T14:05:38.973Z</time></trkpt><trkpt lat="40.9800917" lon="16.9717726"><ele>182.6</ele><time>2026-04-28T14:05:40.973Z</time></trkpt><trkpt lat="40.9800057" lon="16.9718228"><ele>183.2</ele><time>2026-04-28T14:05:42.973Z</time></trkpt><trkpt lat="40.9799146" lon="16.9718668"><ele>183.8</ele><time>2026-04-28T14:05:44.972Z</time></trkpt><trkpt lat="40.9798205" lon="16.9719135"><ele>184.4</ele><time>2026-04-28T14:05:46.972Z</time></trkpt><trkpt lat="40.9797283" lon="16.9719662"><ele>185.0</ele><time>2026-04-28T14:05:48.972Z</time></trkpt><trkpt lat="40.9796329" lon="16.9720162"><ele>185.0</ele><time>2026-04-28T14:05:50.972Z</time></trkpt><trkpt lat="40.9795381" lon="16.9720679"><ele>185.0</ele><time>2026-04-28T14:05:52.972Z</time></trkpt><trkpt lat="40.9794442" lon="16.9721165"><ele>185.0</ele><time>2026-04-28T14:05:54.972Z</time></trkpt><trkpt lat="40.9793515" lon="16.9721652"><ele>185.0</ele><time>2026-04-28T14:05:56.972Z</time></trkpt><trkpt lat="40.9792622" lon="16.972218"><ele>185.0</ele><time>2026-04-28T14:05:58.972Z</time></trkpt><trkpt lat="40.9791706" lon="16.9722669"><ele>185.6</ele><time>2026-04-28T14:06:00.971Z</time></trkpt><trkpt lat="40.9790836" lon="16.972316"><ele>186.2</ele><time>2026-04-28T14:06:02.972Z</time></trkpt><trkpt lat="40.9789905" lon="16.9723617"><ele>186.8</ele><time>2026-04-28T14:06:04.972Z</time></trkpt><trkpt lat="40.9788973" lon="16.9724146"><ele>187.4</ele><time>2026-04-28T14:06:06.972Z</time></trkpt><trkpt lat="40.9788065" lon="16.97247"><ele>188.0</ele><time>2026-04-28T14:06:08.973Z</time></trkpt><trkpt lat="40.9787082" lon="16.9725172"><ele>188.25</ele><time>2026-04-28T14:06:10.972Z</time></trkpt><trkpt lat="40.9786081" lon="16.9725556"><ele>188.5</ele><time>2026-04-28T14:06:12.972Z</time></trkpt><trkpt lat="40.9785044" lon="16.9726083"><ele>188.75</ele><time>2026-04-28T14:06:14.972Z</time></trkpt><trkpt lat="40.9783961" lon="16.9726634"><ele>189.0</ele><time>2026-04-28T14:06:16.973Z</time></trkpt><trkpt lat="40.9782856" lon="16.9727233"><ele>189.0</ele><time>2026-04-28T14:06:18.972Z</time></trkpt><trkpt lat="40.9781752" lon="16.9727866"><ele>189.0</ele><time>2026-04-28T14:06:20.972Z</time></trkpt><trkpt lat="40.9780651" lon="16.9728483"><ele>189.0</ele><time>2026-04-28T14:06:22.972Z</time></trkpt><trkpt lat="40.9779555" lon="16.9729103"><ele>189.0</ele><time>2026-04-28T14:06:24.972Z</time></trkpt><trkpt lat="40.9778466" lon="16.9729714"><ele>189.0</ele><time>2026-04-28T14:06:26.972Z</time></trkpt><trkpt lat="40.9777361" lon="16.9730311"><ele>189.0</ele><time>2026-04-28T14:06:28.972Z</time></trkpt><trkpt lat="40.9776248" lon="16.9730875"><ele>189.0</ele><time>2026-04-28T14:06:30.973Z</time></trkpt><trkpt lat="40.977519" lon="16.9731448"><ele>189.0</ele><time>2026-04-28T14:06:32.973Z</time></trkpt><trkpt lat="40.9774156" lon="16.973199"><ele>188.39999999999998</ele><time>2026-04-28T14:06:34.972Z</time></trkpt><trkpt lat="40.9773143" lon="16.9732602"><ele>187.8</ele><time>2026-04-28T14:06:36.972Z</time></trkpt><trkpt lat="40.9772096" lon="16.9733186"><ele>187.2</ele><time>2026-04-28T14:06:38.972Z</time></trkpt><trkpt lat="40.9771021" lon="16.9733291"><ele>186.60000000000002</ele><time>2026-04-28T14:06:40.972Z</time></trkpt><trkpt lat="40.9769989" lon="16.9732995"><ele>186.0</ele><time>2026-04-28T14:06:42.972Z</time></trkpt><trkpt lat="40.9768925" lon="16.9732793"><ele>186.0</ele><time>2026-04-28T14:06:44.973Z</time></trkpt><trkpt lat="40.9767826" lon="16.9732625"><ele>186.0</ele><time>2026-04-28T14:06:46.973Z</time></trkpt><trkpt lat="40.9766714" lon="16.9732465"><ele>186.0</ele><time>2026-04-28T14:06:48.972Z</time></trkpt><trkpt lat="40.9765585" lon="16.9732388"><ele>186.0</ele><time>2026-04-28T14:06:50.973Z</time></trkpt><trkpt lat="40.9764406" lon="16.9732342"><ele>185.57142857142858</ele><time>2026-04-28T14:06:52.972Z</time></trkpt><trkpt lat="40.9763789" lon="16.9732143"><ele>185.14285714285714</ele><time>2026-04-28T14:06:53.972Z</time></trkpt><trkpt lat="40.9763294" lon="16.9731568"><ele>184.71428571428572</ele><time>2026-04-28T14:06:54.973Z</time></trkpt><trkpt lat="40.9762934" lon="16.9730863"><ele>184.28571428571428</ele><time>2026-04-28T14:06:55.973Z</time></trkpt><trkpt lat="40.9762621" lon="16.9730067"><ele>183.85714285714286</ele><time>2026-04-28T14:06:56.972Z</time></trkpt><trkpt lat="40.9762227" lon="16.9729275"><ele>183.42857142857144</ele><time>2026-04-28T14:06:57.973Z</time></trkpt><trkpt lat="40.9761859" lon="16.97284"><ele>183.0</ele><time>2026-04-28T14:06:58.973Z</time></trkpt><trkpt lat="40.9761462" lon="16.9727632"><ele>183.0</ele><time>2026-04-28T14:06:59.972Z</time></trkpt><trkpt lat="40.9761025" lon="16.972693"><ele>183.0</ele><time>2026-04-28T14:07:00.972Z</time></trkpt><trkpt lat="40.9760564" lon="16.9726155"><ele>183.0</ele><time>2026-04-28T14:07:01.973Z</time></trkpt><trkpt lat="40.9759944" lon="16.9725644"><ele>183.0</ele><time>2026-04-28T14:07:02.973Z</time></trkpt><trkpt lat="40.9759352" lon="16.9725116"><ele>183.0</ele><time>2026-04-28T14:07:03.972Z</time></trkpt><trkpt lat="40.9758789" lon="16.9724497"><ele>183.0</ele><time>2026-04-28T14:07:04.973Z</time></trkpt><trkpt lat="40.9758331" lon="16.9723848"><ele>183.0</ele><time>2026-04-28T14:07:05.973Z</time></trkpt><trkpt lat="40.9757909" lon="16.9723125"><ele>179.0</ele><time>2026-04-28T14:07:06.973Z</time></trkpt><trkpt lat="40.9757318" lon="16.9722527"><ele>179.0</ele><time>2026-04-28T14:07:07.972Z</time></trkpt><trkpt lat="40.9756476" lon="16.9721851"><ele>179.0</ele><time>2026-04-28T14:07:09.972Z</time></trkpt></trkseg></trk></gpx>